<?xml version="1.0" encoding="UTF-8" standalone="no" ?>
<gpx xmlns="http://www.topografix.com/GPX/1/1" xmlns:xsi="http://www.w3.org/2001/XMLSchema-instance" xsi:schemaLocation="http://www.topografix.com/GPX/1/1 http://www.topografix.com/GPX/1/1/gpx.xsd" version="1.1" creator="VisuGPX - https://www.visugpx.com">
  <metadata>
    <name>l-Antonienne 2018 22km</name>
    <desc><![CDATA[AVF Antony
l-Antonienne 2018 22km]]></desc>
  </metadata>
  <trk>
    <name><![CDATA[Antonienne 2: 22km]]></name>
    <trkseg>
      <trkpt lat="48.7483" lon="2.29361">
        <ele>55</ele>
        <time>2017-11-14T10:58:33Z</time>
      </trkpt>
      <trkpt lat="48.74812" lon="2.29318">
        <ele>56</ele>
        <time>2017-11-14T10:58:38Z</time>
      </trkpt>
      <trkpt lat="48.74793" lon="2.29271">
        <ele>58</ele>
        <time>2017-11-14T10:58:43Z</time>
      </trkpt>
      <trkpt lat="48.74793" lon="2.29244">
        <ele>59</ele>
        <time>2017-11-14T10:58:48Z</time>
      </trkpt>
      <trkpt lat="48.7472" lon="2.29166">
        <ele>58</ele>
        <time>2017-11-14T10:58:53Z</time>
      </trkpt>
      <trkpt lat="48.74693" lon="2.29092">
        <ele>58</ele>
        <time>2017-11-14T10:58:58Z</time>
      </trkpt>
      <trkpt lat="48.74661" lon="2.29037">
        <ele>57</ele>
        <time>2017-11-14T10:59:03Z</time>
      </trkpt>
      <trkpt lat="48.74639" lon="2.28967">
        <ele>56</ele>
        <time>2017-11-14T10:59:08Z</time>
      </trkpt>
      <trkpt lat="48.74596" lon="2.28936">
        <ele>54</ele>
        <time>2017-11-14T10:59:13Z</time>
      </trkpt>
      <trkpt lat="48.74585" lon="2.28886">
        <ele>55</ele>
        <time>2017-11-14T10:59:18Z</time>
      </trkpt>
      <trkpt lat="48.74588" lon="2.28886">
        <ele>55</ele>
        <time>2017-11-14T10:59:23Z</time>
      </trkpt>
      <trkpt lat="48.74572" lon="2.28765">
        <ele>55</ele>
        <time>2017-11-14T10:59:28Z</time>
      </trkpt>
      <trkpt lat="48.74631" lon="2.28679">
        <ele>57</ele>
        <time>2017-11-14T10:59:33Z</time>
      </trkpt>
      <trkpt lat="48.74725" lon="2.28574">
        <ele>60</ele>
        <time>2017-11-14T10:59:38Z</time>
      </trkpt>
      <trkpt lat="48.74736" lon="2.28558">
        <ele>60</ele>
        <time>2017-11-14T10:59:43Z</time>
      </trkpt>
      <trkpt lat="48.74751" lon="2.28537">
        <ele>61</ele>
        <time>2017-11-14T10:59:48Z</time>
      </trkpt>
      <trkpt lat="48.7476" lon="2.28526">
        <ele>62</ele>
        <time>2017-11-14T10:59:53Z</time>
      </trkpt>
      <trkpt lat="48.74802" lon="2.28484">
        <ele>64</ele>
        <time>2017-11-14T10:59:58Z</time>
      </trkpt>
      <trkpt lat="48.74817" lon="2.28476">
        <ele>65</ele>
        <time>2017-11-14T11:00:03Z</time>
      </trkpt>
      <trkpt lat="48.74861" lon="2.28413">
        <ele>67</ele>
        <time>2017-11-14T11:00:08Z</time>
      </trkpt>
      <trkpt lat="48.74909" lon="2.2841">
        <ele>70</ele>
        <time>2017-11-14T11:00:13Z</time>
      </trkpt>
      <trkpt lat="48.74958" lon="2.2834">
        <ele>72</ele>
        <time>2017-11-14T11:00:18Z</time>
      </trkpt>
      <trkpt lat="48.75001" lon="2.283">
        <ele>73</ele>
        <time>2017-11-14T11:00:23Z</time>
      </trkpt>
      <trkpt lat="48.75027" lon="2.283">
        <ele>75</ele>
        <time>2017-11-14T11:00:28Z</time>
      </trkpt>
      <trkpt lat="48.75041" lon="2.28275">
        <ele>75</ele>
        <time>2017-11-14T11:00:33Z</time>
      </trkpt>
      <trkpt lat="48.75143" lon="2.28206">
        <ele>80</ele>
        <time>2017-11-14T11:00:38Z</time>
      </trkpt>
      <trkpt lat="48.75227" lon="2.28256">
        <ele>81</ele>
        <time>2017-11-14T11:00:43Z</time>
      </trkpt>
      <trkpt lat="48.7523" lon="2.28254">
        <ele>81</ele>
        <time>2017-11-14T11:00:48Z</time>
      </trkpt>
      <trkpt lat="48.75246" lon="2.28249">
        <ele>81</ele>
        <time>2017-11-14T11:00:53Z</time>
      </trkpt>
      <trkpt lat="48.75246" lon="2.28245">
        <ele>81</ele>
        <time>2017-11-14T11:00:58Z</time>
      </trkpt>
      <trkpt lat="48.7529" lon="2.28262">
        <ele>84</ele>
        <time>2017-11-14T11:01:03Z</time>
      </trkpt>
      <trkpt lat="48.75335" lon="2.28275">
        <ele>86</ele>
        <time>2017-11-14T11:01:08Z</time>
      </trkpt>
      <trkpt lat="48.75403" lon="2.2831">
        <ele>88</ele>
        <time>2017-11-14T11:01:13Z</time>
      </trkpt>
      <trkpt lat="48.75418" lon="2.28328">
        <ele>88</ele>
        <time>2017-11-14T11:01:18Z</time>
      </trkpt>
      <trkpt lat="48.75429" lon="2.2834">
        <ele>88</ele>
        <time>2017-11-14T11:01:23Z</time>
      </trkpt>
      <trkpt lat="48.75452" lon="2.28339">
        <ele>88</ele>
        <time>2017-11-14T11:01:28Z</time>
      </trkpt>
      <trkpt lat="48.75498" lon="2.2835">
        <ele>88</ele>
        <time>2017-11-14T11:01:33Z</time>
      </trkpt>
      <trkpt lat="48.75525" lon="2.28383">
        <ele>88</ele>
        <time>2017-11-14T11:01:38Z</time>
      </trkpt>
      <trkpt lat="48.75545" lon="2.28367">
        <ele>89</ele>
        <time>2017-11-14T11:01:43Z</time>
      </trkpt>
      <trkpt lat="48.75587" lon="2.28388">
        <ele>89</ele>
        <time>2017-11-14T11:01:48Z</time>
      </trkpt>
      <trkpt lat="48.75593" lon="2.28388">
        <ele>89</ele>
        <time>2017-11-14T11:01:53Z</time>
      </trkpt>
      <trkpt lat="48.75593" lon="2.28388">
        <ele>89</ele>
        <time>2017-11-14T11:01:58Z</time>
      </trkpt>
      <trkpt lat="48.75597" lon="2.28402">
        <ele>89</ele>
        <time>2017-11-14T11:02:03Z</time>
      </trkpt>
      <trkpt lat="48.75597" lon="2.284">
        <ele>89</ele>
        <time>2017-11-14T11:02:08Z</time>
      </trkpt>
      <trkpt lat="48.75902" lon="2.28463">
        <ele>92</ele>
        <time>2017-11-14T11:02:13Z</time>
      </trkpt>
      <trkpt lat="48.75953" lon="2.28468">
        <ele>91</ele>
        <time>2017-11-14T11:02:18Z</time>
      </trkpt>
      <trkpt lat="48.75942" lon="2.28546">
        <ele>89</ele>
        <time>2017-11-14T11:02:23Z</time>
      </trkpt>
      <trkpt lat="48.7602" lon="2.28566">
        <ele>87</ele>
        <time>2017-11-14T11:02:28Z</time>
      </trkpt>
      <trkpt lat="48.76018" lon="2.28786">
        <ele>84</ele>
        <time>2017-11-14T11:02:33Z</time>
      </trkpt>
      <trkpt lat="48.75993" lon="2.29067">
        <ele>83</ele>
        <time>2017-11-14T11:02:38Z</time>
      </trkpt>
      <trkpt lat="48.76136" lon="2.29107">
        <ele>78</ele>
        <time>2017-11-14T11:02:43Z</time>
      </trkpt>
      <trkpt lat="48.76115" lon="2.29281">
        <ele>75</ele>
        <time>2017-11-14T11:02:48Z</time>
      </trkpt>
      <trkpt lat="48.76114" lon="2.29405">
        <ele>73</ele>
        <time>2017-11-14T11:02:53Z</time>
      </trkpt>
      <trkpt lat="48.76129" lon="2.29509">
        <ele>72</ele>
        <time>2017-11-14T11:02:58Z</time>
      </trkpt>
      <trkpt lat="48.76129" lon="2.29513">
        <ele>72</ele>
        <time>2017-11-14T11:03:03Z</time>
      </trkpt>
      <trkpt lat="48.76188" lon="2.2947">
        <ele>72</ele>
        <time>2017-11-14T11:03:08Z</time>
      </trkpt>
      <trkpt lat="48.76197" lon="2.29503">
        <ele>71</ele>
        <time>2017-11-14T11:03:13Z</time>
      </trkpt>
      <trkpt lat="48.7627" lon="2.29963">
        <ele>59</ele>
        <time>2017-11-14T11:03:18Z</time>
      </trkpt>
      <trkpt lat="48.76362" lon="2.29933">
        <ele>59</ele>
        <time>2017-11-14T11:03:23Z</time>
      </trkpt>
      <trkpt lat="48.76366" lon="2.29949">
        <ele>58</ele>
        <time>2017-11-14T11:03:28Z</time>
      </trkpt>
      <trkpt lat="48.76718" lon="2.29824">
        <ele>58</ele>
        <time>2017-11-14T11:03:33Z</time>
      </trkpt>
      <trkpt lat="48.76753" lon="2.29816">
        <ele>57</ele>
        <time>2017-11-14T11:03:38Z</time>
      </trkpt>
      <trkpt lat="48.76781" lon="2.29787">
        <ele>58</ele>
        <time>2017-11-14T11:03:43Z</time>
      </trkpt>
      <trkpt lat="48.76813" lon="2.29794">
        <ele>59</ele>
        <time>2017-11-14T11:03:48Z</time>
      </trkpt>
      <trkpt lat="48.7685" lon="2.29776">
        <ele>61</ele>
        <time>2017-11-14T11:03:53Z</time>
      </trkpt>
      <trkpt lat="48.76884" lon="2.29754">
        <ele>61</ele>
        <time>2017-11-14T11:03:58Z</time>
      </trkpt>
      <trkpt lat="48.7702" lon="2.29419">
        <ele>62</ele>
        <time>2017-11-14T11:04:03Z</time>
      </trkpt>
      <trkpt lat="48.77194" lon="2.29589">
        <ele>65</ele>
        <time>2017-11-14T11:04:08Z</time>
      </trkpt>
      <trkpt lat="48.77406" lon="2.29509">
        <ele>77</ele>
        <time>2017-11-14T11:04:13Z</time>
      </trkpt>
      <trkpt lat="48.77436" lon="2.29499">
        <ele>80</ele>
        <time>2017-11-14T11:04:18Z</time>
      </trkpt>
      <trkpt lat="48.77309" lon="2.28682">
        <ele>74</ele>
        <time>2017-11-14T11:04:23Z</time>
      </trkpt>
      <trkpt lat="48.77274" lon="2.28653">
        <ele>76</ele>
        <time>2017-11-14T11:04:28Z</time>
      </trkpt>
      <trkpt lat="48.77284" lon="2.28544">
        <ele>79</ele>
        <time>2017-11-14T11:04:33Z</time>
      </trkpt>
      <trkpt lat="48.772" lon="2.28497">
        <ele>83</ele>
        <time>2017-11-14T11:04:38Z</time>
      </trkpt>
      <trkpt lat="48.76874" lon="2.28503">
        <ele>88</ele>
        <time>2017-11-14T11:04:43Z</time>
      </trkpt>
      <trkpt lat="48.76843" lon="2.28481">
        <ele>90</ele>
        <time>2017-11-14T11:04:48Z</time>
      </trkpt>
      <trkpt lat="48.76841" lon="2.28481">
        <ele>90</ele>
        <time>2017-11-14T11:04:53Z</time>
      </trkpt>
      <trkpt lat="48.76743" lon="2.28479">
        <ele>90</ele>
        <time>2017-11-14T11:04:58Z</time>
      </trkpt>
      <trkpt lat="48.76743" lon="2.28477">
        <ele>90</ele>
        <time>2017-11-14T11:05:03Z</time>
      </trkpt>
      <trkpt lat="48.76592" lon="2.28481">
        <ele>87</ele>
        <time>2017-11-14T11:05:08Z</time>
      </trkpt>
      <trkpt lat="48.76588" lon="2.28474">
        <ele>87</ele>
        <time>2017-11-14T11:05:13Z</time>
      </trkpt>
      <trkpt lat="48.76595" lon="2.28329">
        <ele>91</ele>
        <time>2017-07-11T07:56:45Z</time>
      </trkpt>
      <trkpt lat="48.76598" lon="2.28207">
        <ele>94</ele>
        <time>2017-07-11T07:57:53Z</time>
      </trkpt>
      <trkpt lat="48.76603" lon="2.28145">
        <ele>95</ele>
        <time>2017-11-14T11:05:28Z</time>
      </trkpt>
      <trkpt lat="48.76618" lon="2.28136">
        <ele>96</ele>
        <time>2017-11-14T11:05:33Z</time>
      </trkpt>
      <trkpt lat="48.76615" lon="2.28123">
        <ele>96</ele>
        <time>2017-07-11T08:02:24Z</time>
      </trkpt>
      <trkpt lat="48.76602" lon="2.28134">
        <ele>95</ele>
        <time>2017-07-11T08:02:32Z</time>
      </trkpt>
      <trkpt lat="48.76587" lon="2.28014">
        <ele>95</ele>
        <time>2017-07-11T08:02:34Z</time>
      </trkpt>
      <trkpt lat="48.76573" lon="2.28025">
        <ele>94</ele>
        <time>2017-11-14T11:05:53Z</time>
      </trkpt>
      <trkpt lat="48.7656" lon="2.28023">
        <ele>94</ele>
        <time>2017-07-11T08:02:42Z</time>
      </trkpt>
      <trkpt lat="48.76559" lon="2.28016">
        <ele>94</ele>
        <time>2017-07-11T08:03:21Z</time>
      </trkpt>
      <trkpt lat="48.76573" lon="2.28018">
        <ele>94</ele>
        <time>2017-07-11T08:03:25Z</time>
      </trkpt>
      <trkpt lat="48.76602" lon="2.27993">
        <ele>96</ele>
        <time>2017-07-11T08:03:38Z</time>
      </trkpt>
      <trkpt lat="48.76611" lon="2.27975">
        <ele>97</ele>
        <time>2017-07-11T08:03:58Z</time>
      </trkpt>
      <trkpt lat="48.76614" lon="2.27955">
        <ele>98</ele>
        <time>2017-11-14T11:06:23Z</time>
      </trkpt>
      <trkpt lat="48.76633" lon="2.27941">
        <ele>99</ele>
        <time>2017-07-11T08:06:24Z</time>
      </trkpt>
      <trkpt lat="48.7663" lon="2.27916">
        <ele>100</ele>
        <time>2017-11-14T11:06:33Z</time>
      </trkpt>
      <trkpt lat="48.76638" lon="2.27935">
        <ele>100</ele>
        <time>2017-07-11T08:06:36Z</time>
      </trkpt>
      <trkpt lat="48.76649" lon="2.27926">
        <ele>100</ele>
        <time>2017-11-14T11:06:43Z</time>
      </trkpt>
      <trkpt lat="48.76667" lon="2.27922">
        <ele>101</ele>
        <time>2017-11-14T11:06:48Z</time>
      </trkpt>
      <trkpt lat="48.76674" lon="2.2793">
        <ele>100</ele>
        <time>2017-07-11T08:08:03Z</time>
      </trkpt>
      <trkpt lat="48.76682" lon="2.27957">
        <ele>99</ele>
        <time>2017-07-11T08:08:18Z</time>
      </trkpt>
      <trkpt lat="48.76705" lon="2.27964">
        <ele>99</ele>
        <time>2017-07-11T08:08:32Z</time>
      </trkpt>
      <trkpt lat="48.76718" lon="2.2785">
        <ele>103</ele>
        <time>2017-07-11T08:09:53Z</time>
      </trkpt>
      <trkpt lat="48.76707" lon="2.27787">
        <ele>105</ele>
        <time>2017-07-11T08:10:35Z</time>
      </trkpt>
      <trkpt lat="48.76711" lon="2.27779">
        <ele>105</ele>
        <time>2017-07-11T08:10:46Z</time>
      </trkpt>
      <trkpt lat="48.76708" lon="2.27733">
        <ele>106</ele>
        <time>2017-07-11T08:11:15Z</time>
      </trkpt>
      <trkpt lat="48.767" lon="2.27729">
        <ele>106</ele>
        <time>2017-11-14T11:07:28Z</time>
      </trkpt>
      <trkpt lat="48.76707" lon="2.27685">
        <ele>106</ele>
        <time>2017-07-11T08:11:56Z</time>
      </trkpt>
      <trkpt lat="48.76703" lon="2.27627">
        <ele>107</ele>
        <time>2017-07-11T08:12:10Z</time>
      </trkpt>
      <trkpt lat="48.76743" lon="2.27584">
        <ele>106</ele>
        <time>2017-07-11T08:12:59Z</time>
      </trkpt>
      <trkpt lat="48.76795" lon="2.2745">
        <ele>108</ele>
        <time>2017-07-11T08:14:34Z</time>
      </trkpt>
      <trkpt lat="48.76808" lon="2.27396">
        <ele>109</ele>
        <time>2017-07-11T08:15:04Z</time>
      </trkpt>
      <trkpt lat="48.7681" lon="2.27364">
        <ele>109</ele>
        <time>2017-07-11T08:15:21Z</time>
      </trkpt>
      <trkpt lat="48.76816" lon="2.27346">
        <ele>109</ele>
        <time>2017-07-11T08:15:35Z</time>
      </trkpt>
      <trkpt lat="48.76822" lon="2.27358">
        <ele>108</ele>
        <time>2017-07-11T08:15:46Z</time>
      </trkpt>
      <trkpt lat="48.76835" lon="2.2733">
        <ele>108</ele>
        <time>2017-07-11T08:16:39Z</time>
      </trkpt>
      <trkpt lat="48.76887" lon="2.27357">
        <ele>105</ele>
        <time>2017-07-11T08:17:27Z</time>
      </trkpt>
      <trkpt lat="48.76926" lon="2.27374">
        <ele>103</ele>
        <time>2017-07-11T08:17:57Z</time>
      </trkpt>
      <trkpt lat="48.76941" lon="2.27381">
        <ele>102</ele>
        <time>2017-07-11T08:18:11Z</time>
      </trkpt>
      <trkpt lat="48.76971" lon="2.27392">
        <ele>100</ele>
        <time>2017-07-11T08:18:37Z</time>
      </trkpt>
      <trkpt lat="48.76992" lon="2.274">
        <ele>98</ele>
        <time>2017-07-11T08:18:54Z</time>
      </trkpt>
      <trkpt lat="48.7701" lon="2.27405">
        <ele>97</ele>
        <time>2017-07-11T08:19:08Z</time>
      </trkpt>
      <trkpt lat="48.77022" lon="2.27384">
        <ele>96</ele>
        <time>2017-07-11T08:19:23Z</time>
      </trkpt>
      <trkpt lat="48.77021" lon="2.27376">
        <ele>96</ele>
        <time>2017-07-11T08:19:27Z</time>
      </trkpt>
      <trkpt lat="48.77015" lon="2.27344">
        <ele>96</ele>
        <time>2017-07-11T08:19:46Z</time>
      </trkpt>
      <trkpt lat="48.77011" lon="2.27324">
        <ele>96</ele>
        <time>2017-07-11T08:20:02Z</time>
      </trkpt>
      <trkpt lat="48.77015" lon="2.27319">
        <ele>96</ele>
        <time>2017-07-11T08:20:17Z</time>
      </trkpt>
      <trkpt lat="48.77012" lon="2.27294">
        <ele>96</ele>
        <time>2017-07-11T08:20:32Z</time>
      </trkpt>
      <trkpt lat="48.77012" lon="2.27293">
        <ele>96</ele>
        <time>2017-07-11T08:20:33Z</time>
      </trkpt>
      <trkpt lat="48.77012" lon="2.27272">
        <ele>96</ele>
        <time>2017-07-11T08:20:47Z</time>
      </trkpt>
      <trkpt lat="48.77011" lon="2.27257">
        <ele>97</ele>
        <time>2017-07-11T08:20:56Z</time>
      </trkpt>
      <trkpt lat="48.7703" lon="2.2725">
        <ele>96</ele>
        <time>2017-07-11T08:21:12Z</time>
      </trkpt>
      <trkpt lat="48.77049" lon="2.27244">
        <ele>96</ele>
        <time>2017-07-11T08:21:28Z</time>
      </trkpt>
      <trkpt lat="48.77064" lon="2.27238">
        <ele>96</ele>
        <time>2017-07-11T08:21:43Z</time>
      </trkpt>
      <trkpt lat="48.77081" lon="2.27229">
        <ele>96</ele>
        <time>2017-07-11T08:21:58Z</time>
      </trkpt>
      <trkpt lat="48.77083" lon="2.27225">
        <ele>96</ele>
        <time>2017-07-11T08:22:01Z</time>
      </trkpt>
      <trkpt lat="48.77078" lon="2.27198">
        <ele>97</ele>
        <time>2017-07-11T08:22:17Z</time>
      </trkpt>
      <trkpt lat="48.77071" lon="2.27171">
        <ele>98</ele>
        <time>2017-07-11T08:22:34Z</time>
      </trkpt>
      <trkpt lat="48.77065" lon="2.27149">
        <ele>99</ele>
        <time>2017-07-11T08:22:47Z</time>
      </trkpt>
      <trkpt lat="48.7706" lon="2.27128">
        <ele>99</ele>
        <time>2017-07-11T08:23:00Z</time>
      </trkpt>
      <trkpt lat="48.77054" lon="2.27105">
        <ele>100</ele>
        <time>2017-07-11T08:23:14Z</time>
      </trkpt>
      <trkpt lat="48.77048" lon="2.27077">
        <ele>100</ele>
        <time>2017-07-11T08:23:31Z</time>
      </trkpt>
      <trkpt lat="48.77044" lon="2.27065">
        <ele>100</ele>
        <time>2017-07-11T08:23:38Z</time>
      </trkpt>
      <trkpt lat="48.77028" lon="2.27054">
        <ele>101</ele>
        <time>2017-07-11T08:23:54Z</time>
      </trkpt>
      <trkpt lat="48.77023" lon="2.27026">
        <ele>102</ele>
        <time>2017-07-11T08:24:11Z</time>
      </trkpt>
      <trkpt lat="48.77033" lon="2.27003">
        <ele>102</ele>
        <time>2017-07-11T08:24:29Z</time>
      </trkpt>
      <trkpt lat="48.77036" lon="2.27003">
        <ele>102</ele>
        <time>2017-07-11T08:24:32Z</time>
      </trkpt>
      <trkpt lat="48.77051" lon="2.26999">
        <ele>101</ele>
        <time>2017-07-11T08:40:25Z</time>
      </trkpt>
      <trkpt lat="48.77054" lon="2.26983">
        <ele>102</ele>
        <time>2017-07-11T08:40:39Z</time>
      </trkpt>
      <trkpt lat="48.7707" lon="2.26979">
        <ele>101</ele>
        <time>2017-07-11T08:40:55Z</time>
      </trkpt>
      <trkpt lat="48.77082" lon="2.26963">
        <ele>101</ele>
        <time>2017-07-11T08:41:08Z</time>
      </trkpt>
      <trkpt lat="48.77091" lon="2.26945">
        <ele>102</ele>
        <time>2017-07-11T08:41:22Z</time>
      </trkpt>
      <trkpt lat="48.77098" lon="2.26936">
        <ele>102</ele>
        <time>2017-07-11T08:41:31Z</time>
      </trkpt>
      <trkpt lat="48.77111" lon="2.26928">
        <ele>102</ele>
        <time>2017-07-11T08:41:50Z</time>
      </trkpt>
      <trkpt lat="48.77117" lon="2.26922">
        <ele>102</ele>
        <time>2017-07-11T08:42:02Z</time>
      </trkpt>
      <trkpt lat="48.77131" lon="2.26907">
        <ele>101</ele>
        <time>2017-07-11T08:42:18Z</time>
      </trkpt>
      <trkpt lat="48.77142" lon="2.26899">
        <ele>101</ele>
        <time>2017-07-11T08:42:31Z</time>
      </trkpt>
      <trkpt lat="48.77149" lon="2.26902">
        <ele>101</ele>
        <time>2017-07-11T08:42:38Z</time>
      </trkpt>
      <trkpt lat="48.77161" lon="2.26919">
        <ele>100</ele>
        <time>2017-07-11T08:42:53Z</time>
      </trkpt>
      <trkpt lat="48.77162" lon="2.2692">
        <ele>100</ele>
        <time>2017-07-11T08:42:54Z</time>
      </trkpt>
      <trkpt lat="48.77164" lon="2.26922">
        <ele>100</ele>
        <time>2017-07-11T08:42:56Z</time>
      </trkpt>
      <trkpt lat="48.77171" lon="2.26939">
        <ele>100</ele>
        <time>2017-07-11T08:43:09Z</time>
      </trkpt>
      <trkpt lat="48.77184" lon="2.26959">
        <ele>99</ele>
        <time>2017-07-11T08:43:25Z</time>
      </trkpt>
      <trkpt lat="48.77186" lon="2.26981">
        <ele>98</ele>
        <time>2017-07-11T08:43:41Z</time>
      </trkpt>
      <trkpt lat="48.77179" lon="2.26992">
        <ele>98</ele>
        <time>2017-07-11T08:43:49Z</time>
      </trkpt>
      <trkpt lat="48.77173" lon="2.27021">
        <ele>99</ele>
        <time>2017-07-11T08:44:05Z</time>
      </trkpt>
      <trkpt lat="48.77182" lon="2.27036">
        <ele>98</ele>
        <time>2017-07-11T08:44:20Z</time>
      </trkpt>
      <trkpt lat="48.77181" lon="2.27061">
        <ele>98</ele>
        <time>2017-07-11T08:44:36Z</time>
      </trkpt>
      <trkpt lat="48.77178" lon="2.27098">
        <ele>98</ele>
        <time>2017-07-11T08:44:54Z</time>
      </trkpt>
      <trkpt lat="48.77178" lon="2.27115">
        <ele>97</ele>
        <time>2017-07-11T08:45:07Z</time>
      </trkpt>
      <trkpt lat="48.77171" lon="2.27119">
        <ele>98</ele>
        <time>2017-07-11T08:45:17Z</time>
      </trkpt>
      <trkpt lat="48.77156" lon="2.27129">
        <ele>98</ele>
        <time>2017-07-11T08:45:33Z</time>
      </trkpt>
      <trkpt lat="48.77155" lon="2.27122">
        <ele>98</ele>
        <time>2017-07-11T08:45:39Z</time>
      </trkpt>
      <trkpt lat="48.7716" lon="2.27098">
        <ele>99</ele>
        <time>2017-07-11T08:45:55Z</time>
      </trkpt>
      <trkpt lat="48.77159" lon="2.27097">
        <ele>99</ele>
        <time>2017-07-11T08:45:56Z</time>
      </trkpt>
      <trkpt lat="48.77163" lon="2.27075">
        <ele>99</ele>
        <time>2017-07-11T08:46:10Z</time>
      </trkpt>
      <trkpt lat="48.77158" lon="2.27056">
        <ele>99</ele>
        <time>2017-07-11T08:46:26Z</time>
      </trkpt>
      <trkpt lat="48.77149" lon="2.27069">
        <ele>99</ele>
        <time>2017-07-11T08:46:40Z</time>
      </trkpt>
      <trkpt lat="48.77132" lon="2.27085">
        <ele>99</ele>
        <time>2017-07-11T08:46:56Z</time>
      </trkpt>
      <trkpt lat="48.77121" lon="2.27101">
        <ele>99</ele>
        <time>2017-07-11T08:47:12Z</time>
      </trkpt>
      <trkpt lat="48.77115" lon="2.27114">
        <ele>98</ele>
        <time>2017-07-11T08:47:28Z</time>
      </trkpt>
      <trkpt lat="48.77111" lon="2.27119">
        <ele>98</ele>
        <time>2017-07-11T08:49:30Z</time>
      </trkpt>
      <trkpt lat="48.77111" lon="2.27123">
        <ele>98</ele>
        <time>2017-07-11T08:49:53Z</time>
      </trkpt>
      <trkpt lat="48.77114" lon="2.27134">
        <ele>98</ele>
        <time>2017-07-11T08:50:06Z</time>
      </trkpt>
      <trkpt lat="48.77116" lon="2.27131">
        <ele>98</ele>
        <time>2017-07-11T08:50:30Z</time>
      </trkpt>
      <trkpt lat="48.77118" lon="2.27133">
        <ele>98</ele>
        <time>2017-07-11T08:50:52Z</time>
      </trkpt>
      <trkpt lat="48.77114" lon="2.27139">
        <ele>98</ele>
        <time>2017-07-11T08:51:05Z</time>
      </trkpt>
      <trkpt lat="48.77116" lon="2.27153">
        <ele>98</ele>
        <time>2017-07-11T08:51:10Z</time>
      </trkpt>
      <trkpt lat="48.77126" lon="2.2718">
        <ele>97</ele>
        <time>2017-07-11T08:51:26Z</time>
      </trkpt>
      <trkpt lat="48.77142" lon="2.27196">
        <ele>96</ele>
        <time>2017-07-11T08:51:42Z</time>
      </trkpt>
      <trkpt lat="48.77156" lon="2.27204">
        <ele>95</ele>
        <time>2017-07-11T08:51:56Z</time>
      </trkpt>
      <trkpt lat="48.77163" lon="2.272">
        <ele>95</ele>
        <time>2017-07-11T08:52:03Z</time>
      </trkpt>
      <trkpt lat="48.77185" lon="2.2719">
        <ele>95</ele>
        <time>2017-07-11T08:52:21Z</time>
      </trkpt>
      <trkpt lat="48.77206" lon="2.2718">
        <ele>95</ele>
        <time>2017-07-11T08:52:38Z</time>
      </trkpt>
      <trkpt lat="48.77216" lon="2.27177">
        <ele>95</ele>
        <time>2017-07-11T08:52:48Z</time>
      </trkpt>
      <trkpt lat="48.77233" lon="2.27173">
        <ele>95</ele>
        <time>2017-07-11T08:53:01Z</time>
      </trkpt>
      <trkpt lat="48.77246" lon="2.27186">
        <ele>94</ele>
        <time>2017-07-11T08:53:14Z</time>
      </trkpt>
      <trkpt lat="48.77261" lon="2.27199">
        <ele>95</ele>
        <time>2017-07-11T08:53:29Z</time>
      </trkpt>
      <trkpt lat="48.77274" lon="2.27219">
        <ele>96</ele>
        <time>2017-07-11T08:53:44Z</time>
      </trkpt>
      <trkpt lat="48.77272" lon="2.27211">
        <ele>95</ele>
        <time>2017-07-11T08:53:54Z</time>
      </trkpt>
      <trkpt lat="48.7728" lon="2.27199">
        <ele>96</ele>
        <time>2017-07-11T08:54:06Z</time>
      </trkpt>
      <trkpt lat="48.77284" lon="2.27181">
        <ele>96</ele>
        <time>2017-07-11T08:54:19Z</time>
      </trkpt>
      <trkpt lat="48.77294" lon="2.27165">
        <ele>96</ele>
        <time>2017-07-11T08:54:33Z</time>
      </trkpt>
      <trkpt lat="48.77291" lon="2.27148">
        <ele>96</ele>
        <time>2017-07-11T08:54:47Z</time>
      </trkpt>
      <trkpt lat="48.77292" lon="2.27136">
        <ele>96</ele>
        <time>2017-07-11T08:54:56Z</time>
      </trkpt>
      <trkpt lat="48.77289" lon="2.27127">
        <ele>96</ele>
        <time>2017-07-11T08:55:02Z</time>
      </trkpt>
      <trkpt lat="48.77289" lon="2.2712">
        <ele>96</ele>
        <time>2017-07-11T08:55:06Z</time>
      </trkpt>
      <trkpt lat="48.77298" lon="2.27101">
        <ele>96</ele>
        <time>2017-07-11T08:55:20Z</time>
      </trkpt>
      <trkpt lat="48.77306" lon="2.27081">
        <ele>97</ele>
        <time>2017-07-11T08:55:34Z</time>
      </trkpt>
      <trkpt lat="48.77307" lon="2.27077">
        <ele>97</ele>
        <time>2017-07-11T08:55:36Z</time>
      </trkpt>
      <trkpt lat="48.77314" lon="2.2706">
        <ele>97</ele>
        <time>2017-07-11T08:55:51Z</time>
      </trkpt>
      <trkpt lat="48.77316" lon="2.27049">
        <ele>98</ele>
        <time>2017-07-11T08:56:04Z</time>
      </trkpt>
      <trkpt lat="48.7732" lon="2.27025">
        <ele>98</ele>
        <time>2017-07-11T08:56:19Z</time>
      </trkpt>
      <trkpt lat="48.77322" lon="2.2702">
        <ele>98</ele>
        <time>2017-07-11T08:56:32Z</time>
      </trkpt>
      <trkpt lat="48.77321" lon="2.27019">
        <ele>98</ele>
        <time>2017-07-11T08:56:33Z</time>
      </trkpt>
      <trkpt lat="48.77321" lon="2.27013">
        <ele>98</ele>
        <time>2017-07-11T08:56:38Z</time>
      </trkpt>
      <trkpt lat="48.77322" lon="2.27005">
        <ele>98</ele>
        <time>2017-07-11T08:56:43Z</time>
      </trkpt>
      <trkpt lat="48.77323" lon="2.26993">
        <ele>99</ele>
        <time>2017-07-11T08:56:51Z</time>
      </trkpt>
      <trkpt lat="48.77318" lon="2.26968">
        <ele>99</ele>
        <time>2017-07-11T08:57:07Z</time>
      </trkpt>
      <trkpt lat="48.77314" lon="2.26955">
        <ele>100</ele>
        <time>2017-07-11T08:57:16Z</time>
      </trkpt>
      <trkpt lat="48.77317" lon="2.26945">
        <ele>100</ele>
        <time>2017-07-11T08:57:22Z</time>
      </trkpt>
      <trkpt lat="48.7732" lon="2.26934">
        <ele>101</ele>
        <time>2017-07-11T08:57:29Z</time>
      </trkpt>
      <trkpt lat="48.77328" lon="2.26916">
        <ele>102</ele>
        <time>2017-07-11T08:57:43Z</time>
      </trkpt>
      <trkpt lat="48.77335" lon="2.26903">
        <ele>103</ele>
        <time>2017-07-11T08:57:55Z</time>
      </trkpt>
      <trkpt lat="48.77343" lon="2.26898">
        <ele>104</ele>
        <time>2017-07-11T08:58:06Z</time>
      </trkpt>
      <trkpt lat="48.77348" lon="2.26896">
        <ele>104</ele>
        <time>2017-07-11T08:58:17Z</time>
      </trkpt>
      <trkpt lat="48.77355" lon="2.26898">
        <ele>105</ele>
        <time>2017-07-11T08:58:33Z</time>
      </trkpt>
      <trkpt lat="48.77354" lon="2.269">
        <ele>105</ele>
        <time>2017-07-11T08:58:45Z</time>
      </trkpt>
      <trkpt lat="48.77354" lon="2.26894">
        <ele>105</ele>
        <time>2017-07-11T08:59:09Z</time>
      </trkpt>
      <trkpt lat="48.77362" lon="2.26903">
        <ele>105</ele>
        <time>2017-07-11T08:59:28Z</time>
      </trkpt>
      <trkpt lat="48.77367" lon="2.26911">
        <ele>105</ele>
        <time>2017-07-11T08:59:44Z</time>
      </trkpt>
      <trkpt lat="48.77367" lon="2.26923">
        <ele>105</ele>
        <time>2017-07-11T08:59:59Z</time>
      </trkpt>
      <trkpt lat="48.77358" lon="2.26939">
        <ele>103</ele>
        <time>2017-07-11T09:00:13Z</time>
      </trkpt>
      <trkpt lat="48.77363" lon="2.26957">
        <ele>103</ele>
        <time>2017-07-11T09:00:26Z</time>
      </trkpt>
      <trkpt lat="48.77373" lon="2.26963">
        <ele>104</ele>
        <time>2017-07-11T09:00:40Z</time>
      </trkpt>
      <trkpt lat="48.77385" lon="2.2698">
        <ele>104</ele>
        <time>2017-07-11T09:00:56Z</time>
      </trkpt>
      <trkpt lat="48.7739" lon="2.26994">
        <ele>103</ele>
        <time>2017-07-11T09:01:06Z</time>
      </trkpt>
      <trkpt lat="48.7739" lon="2.27012">
        <ele>103</ele>
        <time>2017-07-11T09:01:21Z</time>
      </trkpt>
      <trkpt lat="48.77391" lon="2.27014">
        <ele>103</ele>
        <time>2017-07-11T09:01:30Z</time>
      </trkpt>
      <trkpt lat="48.77392" lon="2.2702">
        <ele>103</ele>
        <time>2017-07-11T09:01:34Z</time>
      </trkpt>
      <trkpt lat="48.77398" lon="2.27029">
        <ele>104</ele>
        <time>2017-07-11T09:01:42Z</time>
      </trkpt>
      <trkpt lat="48.77411" lon="2.27023">
        <ele>105</ele>
        <time>2017-07-11T09:01:55Z</time>
      </trkpt>
      <trkpt lat="48.77419" lon="2.27025">
        <ele>105</ele>
        <time>2017-07-11T09:02:03Z</time>
      </trkpt>
      <trkpt lat="48.77421" lon="2.27026">
        <ele>106</ele>
        <time>2017-07-11T09:02:05Z</time>
      </trkpt>
      <trkpt lat="48.77433" lon="2.27038">
        <ele>106</ele>
        <time>2017-07-11T09:02:18Z</time>
      </trkpt>
      <trkpt lat="48.77444" lon="2.27042">
        <ele>107</ele>
        <time>2017-07-11T09:02:32Z</time>
      </trkpt>
      <trkpt lat="48.77455" lon="2.27012">
        <ele>107</ele>
        <time>2017-07-11T09:02:50Z</time>
      </trkpt>
      <trkpt lat="48.77457" lon="2.26998">
        <ele>107</ele>
        <time>2017-07-11T09:07:52Z</time>
      </trkpt>
      <trkpt lat="48.77462" lon="2.26985">
        <ele>108</ele>
        <time>2017-07-11T09:08:04Z</time>
      </trkpt>
      <trkpt lat="48.77464" lon="2.26986">
        <ele>108</ele>
        <time>2017-07-11T09:08:06Z</time>
      </trkpt>
      <trkpt lat="48.77475" lon="2.26998">
        <ele>108</ele>
        <time>2017-07-11T09:08:20Z</time>
      </trkpt>
      <trkpt lat="48.77479" lon="2.27006">
        <ele>109</ele>
        <time>2017-07-11T09:08:29Z</time>
      </trkpt>
      <trkpt lat="48.77471" lon="2.27035">
        <ele>109</ele>
        <time>2017-07-11T09:08:47Z</time>
      </trkpt>
      <trkpt lat="48.77462" lon="2.27052">
        <ele>109</ele>
        <time>2017-07-11T09:09:02Z</time>
      </trkpt>
      <trkpt lat="48.77452" lon="2.27055">
        <ele>108</ele>
        <time>2017-07-11T09:09:12Z</time>
      </trkpt>
      <trkpt lat="48.77446" lon="2.27053">
        <ele>108</ele>
        <time>2017-07-11T09:09:27Z</time>
      </trkpt>
      <trkpt lat="48.77443" lon="2.27059">
        <ele>107</ele>
        <time>2017-07-11T09:09:44Z</time>
      </trkpt>
      <trkpt lat="48.77438" lon="2.27079">
        <ele>107</ele>
        <time>2017-07-11T09:09:58Z</time>
      </trkpt>
      <trkpt lat="48.77439" lon="2.27082">
        <ele>108</ele>
        <time>2017-07-11T09:10:15Z</time>
      </trkpt>
      <trkpt lat="48.77436" lon="2.27105">
        <ele>108</ele>
        <time>2017-07-11T09:10:30Z</time>
      </trkpt>
      <trkpt lat="48.77427" lon="2.27114">
        <ele>107</ele>
        <time>2017-07-11T09:10:44Z</time>
      </trkpt>
      <trkpt lat="48.77422" lon="2.27118">
        <ele>107</ele>
        <time>2017-07-11T09:10:59Z</time>
      </trkpt>
      <trkpt lat="48.77414" lon="2.27105">
        <ele>106</ele>
        <time>2017-07-11T09:11:09Z</time>
      </trkpt>
      <trkpt lat="48.77416" lon="2.27091">
        <ele>106</ele>
        <time>2017-07-11T09:11:23Z</time>
      </trkpt>
      <trkpt lat="48.774" lon="2.27079">
        <ele>105</ele>
        <time>2017-07-11T09:11:40Z</time>
      </trkpt>
      <trkpt lat="48.77396" lon="2.27077">
        <ele>104</ele>
        <time>2017-07-11T09:11:43Z</time>
      </trkpt>
      <trkpt lat="48.77383" lon="2.27063">
        <ele>103</ele>
        <time>2017-07-11T09:11:57Z</time>
      </trkpt>
      <trkpt lat="48.77379" lon="2.27056">
        <ele>103</ele>
        <time>2017-07-11T09:12:02Z</time>
      </trkpt>
      <trkpt lat="48.77374" lon="2.27037">
        <ele>102</ele>
        <time>2017-07-11T09:12:16Z</time>
      </trkpt>
      <trkpt lat="48.77385" lon="2.27028">
        <ele>103</ele>
        <time>2017-07-11T09:12:33Z</time>
      </trkpt>
      <trkpt lat="48.77386" lon="2.27013">
        <ele>103</ele>
        <time>2017-07-11T09:12:45Z</time>
      </trkpt>
      <trkpt lat="48.77386" lon="2.27013">
        <ele>103</ele>
        <time>2017-07-11T09:13:02Z</time>
      </trkpt>
      <trkpt lat="48.77383" lon="2.27005">
        <ele>103</ele>
        <time>2017-07-11T09:13:18Z</time>
      </trkpt>
      <trkpt lat="48.77386" lon="2.26998">
        <ele>103</ele>
        <time>2017-07-11T09:13:33Z</time>
      </trkpt>
      <trkpt lat="48.77388" lon="2.26987">
        <ele>104</ele>
        <time>2017-07-11T09:13:48Z</time>
      </trkpt>
      <trkpt lat="48.7739" lon="2.26986">
        <ele>104</ele>
        <time>2017-07-11T09:13:50Z</time>
      </trkpt>
      <trkpt lat="48.77394" lon="2.26983">
        <ele>104</ele>
        <time>2017-07-11T09:13:53Z</time>
      </trkpt>
      <trkpt lat="48.77409" lon="2.2697">
        <ele>106</ele>
        <time>2017-07-11T09:14:10Z</time>
      </trkpt>
      <trkpt lat="48.77415" lon="2.26965">
        <ele>107</ele>
        <time>2017-07-11T09:14:16Z</time>
      </trkpt>
      <trkpt lat="48.77427" lon="2.26954">
        <ele>108</ele>
        <time>2017-07-11T09:14:31Z</time>
      </trkpt>
      <trkpt lat="48.77429" lon="2.26951">
        <ele>108</ele>
        <time>2017-07-11T09:14:35Z</time>
      </trkpt>
      <trkpt lat="48.77435" lon="2.26939">
        <ele>109</ele>
        <time>2017-07-11T09:14:43Z</time>
      </trkpt>
      <trkpt lat="48.77437" lon="2.26917">
        <ele>109</ele>
        <time>2017-07-11T09:14:58Z</time>
      </trkpt>
      <trkpt lat="48.77436" lon="2.26894">
        <ele>111</ele>
        <time>2017-07-11T09:15:14Z</time>
      </trkpt>
      <trkpt lat="48.77433" lon="2.26874">
        <ele>112</ele>
        <time>2017-07-11T09:15:26Z</time>
      </trkpt>
      <trkpt lat="48.77428" lon="2.26859">
        <ele>113</ele>
        <time>2017-07-11T09:15:36Z</time>
      </trkpt>
      <trkpt lat="48.77418" lon="2.26845">
        <ele>113</ele>
        <time>2017-07-11T09:15:50Z</time>
      </trkpt>
      <trkpt lat="48.77416" lon="2.26844">
        <ele>113</ele>
        <time>2017-07-11T09:15:53Z</time>
      </trkpt>
      <trkpt lat="48.77397" lon="2.26843">
        <ele>111</ele>
        <time>2017-07-11T09:16:10Z</time>
      </trkpt>
      <trkpt lat="48.77387" lon="2.26834">
        <ele>111</ele>
        <time>2017-07-11T09:16:24Z</time>
      </trkpt>
      <trkpt lat="48.77381" lon="2.26816">
        <ele>112</ele>
        <time>2017-07-11T09:16:38Z</time>
      </trkpt>
      <trkpt lat="48.77366" lon="2.26803">
        <ele>112</ele>
        <time>2017-07-11T09:16:53Z</time>
      </trkpt>
      <trkpt lat="48.7736" lon="2.26792">
        <ele>113</ele>
        <time>2017-07-11T09:17:01Z</time>
      </trkpt>
      <trkpt lat="48.77352" lon="2.2678">
        <ele>113</ele>
        <time>2017-07-11T09:17:13Z</time>
      </trkpt>
      <trkpt lat="48.77348" lon="2.26774">
        <ele>113</ele>
        <time>2017-07-11T09:17:26Z</time>
      </trkpt>
      <trkpt lat="48.77348" lon="2.26771">
        <ele>113</ele>
        <time>2017-07-11T09:17:30Z</time>
      </trkpt>
      <trkpt lat="48.77349" lon="2.26764">
        <ele>114</ele>
        <time>2017-07-11T09:17:41Z</time>
      </trkpt>
      <trkpt lat="48.77344" lon="2.26752">
        <ele>115</ele>
        <time>2017-07-11T09:17:48Z</time>
      </trkpt>
      <trkpt lat="48.77344" lon="2.26751">
        <ele>115</ele>
        <time>2017-11-14T11:23:28Z</time>
      </trkpt>
      <trkpt lat="48.77344" lon="2.26752">
        <ele>115</ele>
        <time>2017-11-14T11:23:33Z</time>
      </trkpt>
      <trkpt lat="48.77337" lon="2.26751">
        <ele>114</ele>
        <time>2017-11-14T11:23:38Z</time>
      </trkpt>
      <trkpt lat="48.77341" lon="2.26741">
        <ele>116</ele>
        <time>2017-11-14T11:23:43Z</time>
      </trkpt>
      <trkpt lat="48.77341" lon="2.26742">
        <ele>116</ele>
        <time>2017-07-11T09:55:43Z</time>
      </trkpt>
      <trkpt lat="48.77344" lon="2.26741">
        <ele>116</ele>
        <time>2017-07-11T09:55:46Z</time>
      </trkpt>
      <trkpt lat="48.77345" lon="2.2674">
        <ele>117</ele>
        <time>2017-07-11T09:55:47Z</time>
      </trkpt>
      <trkpt lat="48.77347" lon="2.26736">
        <ele>117</ele>
        <time>2017-07-11T09:55:51Z</time>
      </trkpt>
      <trkpt lat="48.77348" lon="2.26736">
        <ele>117</ele>
        <time>2017-07-11T09:55:52Z</time>
      </trkpt>
      <trkpt lat="48.7735" lon="2.26735">
        <ele>118</ele>
        <time>2017-07-11T09:55:53Z</time>
      </trkpt>
      <trkpt lat="48.77353" lon="2.26723">
        <ele>119</ele>
        <time>2017-07-11T09:56:04Z</time>
      </trkpt>
      <trkpt lat="48.77357" lon="2.26709">
        <ele>121</ele>
        <time>2017-07-11T09:56:13Z</time>
      </trkpt>
      <trkpt lat="48.77368" lon="2.26687">
        <ele>125</ele>
        <time>2017-07-11T09:56:25Z</time>
      </trkpt>
      <trkpt lat="48.77369" lon="2.26682">
        <ele>126</ele>
        <time>2017-07-11T09:56:28Z</time>
      </trkpt>
      <trkpt lat="48.77371" lon="2.26679">
        <ele>126</ele>
        <time>2017-07-11T09:56:30Z</time>
      </trkpt>
      <trkpt lat="48.77381" lon="2.26664">
        <ele>129</ele>
        <time>2017-07-11T09:56:42Z</time>
      </trkpt>
      <trkpt lat="48.77389" lon="2.26648">
        <ele>130</ele>
        <time>2017-07-11T09:56:54Z</time>
      </trkpt>
      <trkpt lat="48.77391" lon="2.26645">
        <ele>130</ele>
        <time>2017-07-11T09:56:57Z</time>
      </trkpt>
      <trkpt lat="48.77398" lon="2.26634">
        <ele>131</ele>
        <time>2017-07-11T09:57:06Z</time>
      </trkpt>
      <trkpt lat="48.774" lon="2.26629">
        <ele>131</ele>
        <time>2017-07-11T09:57:11Z</time>
      </trkpt>
      <trkpt lat="48.77408" lon="2.26617">
        <ele>132</ele>
        <time>2017-07-11T09:57:23Z</time>
      </trkpt>
      <trkpt lat="48.77415" lon="2.26603">
        <ele>132</ele>
        <time>2017-07-11T09:57:36Z</time>
      </trkpt>
      <trkpt lat="48.77421" lon="2.26598">
        <ele>133</ele>
        <time>2017-07-11T09:57:40Z</time>
      </trkpt>
      <trkpt lat="48.77429" lon="2.26586">
        <ele>134</ele>
        <time>2017-07-11T09:57:51Z</time>
      </trkpt>
      <trkpt lat="48.77432" lon="2.26583">
        <ele>134</ele>
        <time>2017-07-11T09:57:53Z</time>
      </trkpt>
      <trkpt lat="48.77434" lon="2.26579">
        <ele>134</ele>
        <time>2017-07-11T09:57:56Z</time>
      </trkpt>
      <trkpt lat="48.77437" lon="2.2657">
        <ele>135</ele>
        <time>2017-07-11T09:58:04Z</time>
      </trkpt>
      <trkpt lat="48.77439" lon="2.26565">
        <ele>136</ele>
        <time>2017-07-11T09:58:08Z</time>
      </trkpt>
      <trkpt lat="48.77442" lon="2.26563">
        <ele>136</ele>
        <time>2017-07-11T09:58:10Z</time>
      </trkpt>
      <trkpt lat="48.77454" lon="2.26547">
        <ele>138</ele>
        <time>2017-07-11T09:58:21Z</time>
      </trkpt>
      <trkpt lat="48.77459" lon="2.26534">
        <ele>138</ele>
        <time>2017-07-11T09:58:31Z</time>
      </trkpt>
      <trkpt lat="48.7746" lon="2.26533">
        <ele>139</ele>
        <time>2017-07-11T09:58:32Z</time>
      </trkpt>
      <trkpt lat="48.77459" lon="2.26524">
        <ele>139</ele>
        <time>2017-07-11T09:58:37Z</time>
      </trkpt>
      <trkpt lat="48.77458" lon="2.26523">
        <ele>139</ele>
        <time>2017-07-11T09:58:38Z</time>
      </trkpt>
      <trkpt lat="48.77456" lon="2.26522">
        <ele>138</ele>
        <time>2017-07-11T09:58:39Z</time>
      </trkpt>
      <trkpt lat="48.77455" lon="2.26509">
        <ele>139</ele>
        <time>2017-07-11T09:58:48Z</time>
      </trkpt>
      <trkpt lat="48.77457" lon="2.26491">
        <ele>140</ele>
        <time>2017-07-11T09:58:59Z</time>
      </trkpt>
      <trkpt lat="48.7746" lon="2.26477">
        <ele>141</ele>
        <time>2017-07-11T09:59:09Z</time>
      </trkpt>
      <trkpt lat="48.77461" lon="2.26472">
        <ele>142</ele>
        <time>2017-07-11T09:59:12Z</time>
      </trkpt>
      <trkpt lat="48.77458" lon="2.26455">
        <ele>143</ele>
        <time>2017-07-11T09:59:23Z</time>
      </trkpt>
      <trkpt lat="48.77455" lon="2.26449">
        <ele>143</ele>
        <time>2017-07-11T09:59:27Z</time>
      </trkpt>
      <trkpt lat="48.77451" lon="2.26431">
        <ele>144</ele>
        <time>2017-07-11T09:59:39Z</time>
      </trkpt>
      <trkpt lat="48.77449" lon="2.2642">
        <ele>145</ele>
        <time>2017-07-11T09:59:47Z</time>
      </trkpt>
      <trkpt lat="48.77443" lon="2.26403">
        <ele>145</ele>
        <time>2017-07-11T09:59:59Z</time>
      </trkpt>
      <trkpt lat="48.77435" lon="2.26391">
        <ele>145</ele>
        <time>2017-07-11T10:00:09Z</time>
      </trkpt>
      <trkpt lat="48.77429" lon="2.26385">
        <ele>145</ele>
        <time>2017-07-11T10:00:15Z</time>
      </trkpt>
      <trkpt lat="48.77424" lon="2.26382">
        <ele>144</ele>
        <time>2017-07-11T10:00:19Z</time>
      </trkpt>
      <trkpt lat="48.77408" lon="2.26373">
        <ele>143</ele>
        <time>2017-07-11T10:00:34Z</time>
      </trkpt>
      <trkpt lat="48.7739" lon="2.26372">
        <ele>140</ele>
        <time>2017-07-11T10:00:48Z</time>
      </trkpt>
      <trkpt lat="48.77382" lon="2.26369">
        <ele>140</ele>
        <time>2017-07-11T10:00:56Z</time>
      </trkpt>
      <trkpt lat="48.77379" lon="2.26368">
        <ele>139</ele>
        <time>2017-07-11T10:00:58Z</time>
      </trkpt>
      <trkpt lat="48.77375" lon="2.26368">
        <ele>139</ele>
        <time>2017-07-11T10:01:01Z</time>
      </trkpt>
      <trkpt lat="48.77359" lon="2.26356">
        <ele>137</ele>
        <time>2017-07-11T10:01:13Z</time>
      </trkpt>
      <trkpt lat="48.77359" lon="2.26355">
        <ele>137</ele>
        <time>2017-07-11T10:01:14Z</time>
      </trkpt>
      <trkpt lat="48.77346" lon="2.26338">
        <ele>136</ele>
        <time>2017-07-11T10:01:26Z</time>
      </trkpt>
      <trkpt lat="48.77344" lon="2.26334">
        <ele>136</ele>
        <time>2017-07-11T10:01:28Z</time>
      </trkpt>
      <trkpt lat="48.77336" lon="2.26323">
        <ele>135</ele>
        <time>2017-07-11T10:01:36Z</time>
      </trkpt>
      <trkpt lat="48.77333" lon="2.26319">
        <ele>135</ele>
        <time>2017-07-11T10:01:39Z</time>
      </trkpt>
      <trkpt lat="48.77333" lon="2.26317">
        <ele>135</ele>
        <time>2017-07-11T10:01:40Z</time>
      </trkpt>
      <trkpt lat="48.77331" lon="2.26316">
        <ele>135</ele>
        <time>2017-07-11T10:01:41Z</time>
      </trkpt>
      <trkpt lat="48.77316" lon="2.26292">
        <ele>137</ele>
        <time>2017-07-11T10:01:58Z</time>
      </trkpt>
      <trkpt lat="48.77316" lon="2.26292">
        <ele>137</ele>
        <time>2017-11-14T11:28:33Z</time>
      </trkpt>
      <trkpt lat="48.77315" lon="2.26263">
        <ele>139</ele>
        <time>2017-11-14T11:28:38Z</time>
      </trkpt>
      <trkpt lat="48.77316" lon="2.26218">
        <ele>141</ele>
        <time>2017-11-14T11:28:43Z</time>
      </trkpt>
      <trkpt lat="48.77324" lon="2.26199">
        <ele>141</ele>
        <time>2017-11-14T11:28:48Z</time>
      </trkpt>
      <trkpt lat="48.77346" lon="2.26184">
        <ele>144</ele>
        <time>2017-11-14T11:28:53Z</time>
      </trkpt>
      <trkpt lat="48.77361" lon="2.26172">
        <ele>147</ele>
        <time>2017-11-14T11:28:58Z</time>
      </trkpt>
      <trkpt lat="48.77361" lon="2.26172">
        <ele>147</ele>
        <time>2017-11-14T11:29:03Z</time>
      </trkpt>
      <trkpt lat="48.77367" lon="2.2616">
        <ele>149</ele>
        <time>2017-11-14T11:29:08Z</time>
      </trkpt>
      <trkpt lat="48.77355" lon="2.26116">
        <ele>148</ele>
        <time>2017-11-14T11:29:13Z</time>
      </trkpt>
      <trkpt lat="48.77363" lon="2.2609">
        <ele>151</ele>
        <time>2017-11-14T11:29:18Z</time>
      </trkpt>
      <trkpt lat="48.77364" lon="2.26071">
        <ele>152</ele>
        <time>2017-11-14T11:29:23Z</time>
      </trkpt>
      <trkpt lat="48.77361" lon="2.26057">
        <ele>152</ele>
        <time>2017-11-14T11:29:28Z</time>
      </trkpt>
      <trkpt lat="48.77334" lon="2.26046">
        <ele>147</ele>
        <time>2017-11-14T11:29:33Z</time>
      </trkpt>
      <trkpt lat="48.77319" lon="2.2604">
        <ele>149</ele>
        <time>2017-11-14T11:29:38Z</time>
      </trkpt>
      <trkpt lat="48.77307" lon="2.2603">
        <ele>150</ele>
        <time>2017-11-14T11:29:43Z</time>
      </trkpt>
      <trkpt lat="48.77291" lon="2.26012">
        <ele>152</ele>
        <time>2017-11-14T11:29:48Z</time>
      </trkpt>
      <trkpt lat="48.77281" lon="2.2602">
        <ele>152</ele>
        <time>2017-11-14T11:29:53Z</time>
      </trkpt>
      <trkpt lat="48.77277" lon="2.26055">
        <ele>151</ele>
        <time>2017-11-14T11:29:58Z</time>
      </trkpt>
      <trkpt lat="48.77271" lon="2.2608">
        <ele>150</ele>
        <time>2017-11-14T11:30:03Z</time>
      </trkpt>
      <trkpt lat="48.77256" lon="2.26115">
        <ele>149</ele>
        <time>2017-11-14T11:30:08Z</time>
      </trkpt>
      <trkpt lat="48.77257" lon="2.26116">
        <ele>148</ele>
        <time>2017-11-14T11:30:13Z</time>
      </trkpt>
      <trkpt lat="48.77251" lon="2.26136">
        <ele>147</ele>
        <time>2017-11-14T11:30:18Z</time>
      </trkpt>
      <trkpt lat="48.77251" lon="2.26137">
        <ele>147</ele>
        <time>2017-11-14T11:30:23Z</time>
      </trkpt>
      <trkpt lat="48.77238" lon="2.26148">
        <ele>145</ele>
        <time>2017-11-14T11:30:28Z</time>
      </trkpt>
      <trkpt lat="48.77235" lon="2.26143">
        <ele>145</ele>
        <time>2017-07-11T10:04:56Z</time>
      </trkpt>
      <trkpt lat="48.77231" lon="2.26135">
        <ele>146</ele>
        <time>2017-07-11T10:05:01Z</time>
      </trkpt>
      <trkpt lat="48.77229" lon="2.2613">
        <ele>146</ele>
        <time>2017-07-11T10:05:04Z</time>
      </trkpt>
      <trkpt lat="48.77228" lon="2.26128">
        <ele>146</ele>
        <time>2017-07-11T10:05:05Z</time>
      </trkpt>
      <trkpt lat="48.77213" lon="2.26106">
        <ele>148</ele>
        <time>2017-07-11T10:05:21Z</time>
      </trkpt>
      <trkpt lat="48.77201" lon="2.26091">
        <ele>148</ele>
        <time>2017-07-11T10:05:34Z</time>
      </trkpt>
      <trkpt lat="48.77194" lon="2.26085">
        <ele>148</ele>
        <time>2017-07-11T10:05:44Z</time>
      </trkpt>
      <trkpt lat="48.77185" lon="2.26079">
        <ele>148</ele>
        <time>2017-07-11T10:05:54Z</time>
      </trkpt>
      <trkpt lat="48.77174" lon="2.26073">
        <ele>148</ele>
        <time>2017-07-11T10:06:06Z</time>
      </trkpt>
      <trkpt lat="48.77162" lon="2.26068">
        <ele>147</ele>
        <time>2017-07-11T10:06:18Z</time>
      </trkpt>
      <trkpt lat="48.77149" lon="2.26067">
        <ele>146</ele>
        <time>2017-07-11T10:06:32Z</time>
      </trkpt>
      <trkpt lat="48.77134" lon="2.26067">
        <ele>143</ele>
        <time>2017-07-11T10:06:44Z</time>
      </trkpt>
      <trkpt lat="48.7712" lon="2.26065">
        <ele>142</ele>
        <time>2017-07-11T10:06:57Z</time>
      </trkpt>
      <trkpt lat="48.77103" lon="2.26055">
        <ele>140</ele>
        <time>2017-07-11T10:07:12Z</time>
      </trkpt>
      <trkpt lat="48.77094" lon="2.26048">
        <ele>139</ele>
        <time>2017-07-11T10:07:23Z</time>
      </trkpt>
      <trkpt lat="48.7709" lon="2.26044">
        <ele>139</ele>
        <time>2017-07-11T10:07:28Z</time>
      </trkpt>
      <trkpt lat="48.77074" lon="2.26037">
        <ele>138</ele>
        <time>2017-07-11T10:07:42Z</time>
      </trkpt>
      <trkpt lat="48.77062" lon="2.26034">
        <ele>138</ele>
        <time>2017-07-11T10:07:57Z</time>
      </trkpt>
      <trkpt lat="48.77058" lon="2.26035">
        <ele>138</ele>
        <time>2017-07-11T10:08:01Z</time>
      </trkpt>
      <trkpt lat="48.77049" lon="2.2604">
        <ele>137</ele>
        <time>2017-07-11T10:08:08Z</time>
      </trkpt>
      <trkpt lat="48.77032" lon="2.26053">
        <ele>137</ele>
        <time>2017-07-11T10:08:23Z</time>
      </trkpt>
      <trkpt lat="48.7702" lon="2.26055">
        <ele>136</ele>
        <time>2017-07-11T10:08:35Z</time>
      </trkpt>
      <trkpt lat="48.77009" lon="2.26052">
        <ele>136</ele>
        <time>2017-07-11T10:08:46Z</time>
      </trkpt>
      <trkpt lat="48.76996" lon="2.26047">
        <ele>136</ele>
        <time>2017-07-11T10:08:59Z</time>
      </trkpt>
      <trkpt lat="48.76991" lon="2.26044">
        <ele>136</ele>
        <time>2017-07-11T10:09:03Z</time>
      </trkpt>
      <trkpt lat="48.76978" lon="2.26042">
        <ele>137</ele>
        <time>2017-07-11T10:09:15Z</time>
      </trkpt>
      <trkpt lat="48.76965" lon="2.2604">
        <ele>137</ele>
        <time>2017-07-11T10:09:26Z</time>
      </trkpt>
      <trkpt lat="48.76953" lon="2.26039">
        <ele>138</ele>
        <time>2017-07-11T10:09:38Z</time>
      </trkpt>
      <trkpt lat="48.7694" lon="2.26045">
        <ele>139</ele>
        <time>2017-07-11T10:09:53Z</time>
      </trkpt>
      <trkpt lat="48.76933" lon="2.26057">
        <ele>140</ele>
        <time>2017-07-11T10:10:02Z</time>
      </trkpt>
      <trkpt lat="48.76927" lon="2.26076">
        <ele>141</ele>
        <time>2017-07-11T10:10:14Z</time>
      </trkpt>
      <trkpt lat="48.76926" lon="2.26082">
        <ele>141</ele>
        <time>2017-07-11T10:10:19Z</time>
      </trkpt>
      <trkpt lat="48.76931" lon="2.26101">
        <ele>141</ele>
        <time>2017-07-11T10:10:32Z</time>
      </trkpt>
      <trkpt lat="48.7693" lon="2.26121">
        <ele>142</ele>
        <time>2017-07-11T10:10:44Z</time>
      </trkpt>
      <trkpt lat="48.76925" lon="2.26141">
        <ele>142</ele>
        <time>2017-07-11T10:10:56Z</time>
      </trkpt>
      <trkpt lat="48.76921" lon="2.26155">
        <ele>143</ele>
        <time>2017-07-11T10:11:07Z</time>
      </trkpt>
      <trkpt lat="48.7692" lon="2.26162">
        <ele>143</ele>
        <time>2017-07-11T10:11:12Z</time>
      </trkpt>
      <trkpt lat="48.76916" lon="2.26184">
        <ele>143</ele>
        <time>2017-07-11T10:11:26Z</time>
      </trkpt>
      <trkpt lat="48.76904" lon="2.26196">
        <ele>143</ele>
        <time>2017-07-11T10:11:41Z</time>
      </trkpt>
      <trkpt lat="48.76892" lon="2.26205">
        <ele>143</ele>
        <time>2017-07-11T10:11:56Z</time>
      </trkpt>
      <trkpt lat="48.76879" lon="2.26218">
        <ele>143</ele>
        <time>2017-07-11T10:12:10Z</time>
      </trkpt>
      <trkpt lat="48.76874" lon="2.26224">
        <ele>143</ele>
        <time>2017-07-11T10:12:15Z</time>
      </trkpt>
      <trkpt lat="48.76862" lon="2.26237">
        <ele>143</ele>
        <time>2017-07-11T10:12:30Z</time>
      </trkpt>
      <trkpt lat="48.76859" lon="2.26243">
        <ele>143</ele>
        <time>2017-07-11T10:12:42Z</time>
      </trkpt>
      <trkpt lat="48.76856" lon="2.26235">
        <ele>143</ele>
        <time>2017-07-11T10:12:55Z</time>
      </trkpt>
      <trkpt lat="48.76854" lon="2.26224">
        <ele>144</ele>
        <time>2017-07-11T10:13:03Z</time>
      </trkpt>
      <trkpt lat="48.76857" lon="2.26214">
        <ele>144</ele>
        <time>2017-07-11T10:13:11Z</time>
      </trkpt>
      <trkpt lat="48.76859" lon="2.26193">
        <ele>145</ele>
        <time>2017-07-11T10:13:24Z</time>
      </trkpt>
      <trkpt lat="48.76851" lon="2.26178">
        <ele>145</ele>
        <time>2017-07-11T10:13:39Z</time>
      </trkpt>
      <trkpt lat="48.76847" lon="2.26172">
        <ele>146</ele>
        <time>2017-07-11T10:13:54Z</time>
      </trkpt>
      <trkpt lat="48.76844" lon="2.26163">
        <ele>146</ele>
        <time>2017-07-11T10:14:02Z</time>
      </trkpt>
      <trkpt lat="48.76832" lon="2.26151">
        <ele>146</ele>
        <time>2017-07-11T10:14:16Z</time>
      </trkpt>
      <trkpt lat="48.7683" lon="2.26151">
        <ele>146</ele>
        <time>2017-07-11T10:14:17Z</time>
      </trkpt>
      <trkpt lat="48.76816" lon="2.26149">
        <ele>149</ele>
        <time>2017-07-11T10:14:30Z</time>
      </trkpt>
      <trkpt lat="48.76811" lon="2.2615">
        <ele>149</ele>
        <time>2017-07-11T10:14:37Z</time>
      </trkpt>
      <trkpt lat="48.76808" lon="2.26151">
        <ele>150</ele>
        <time>2017-07-11T10:14:40Z</time>
      </trkpt>
      <trkpt lat="48.76802" lon="2.26158">
        <ele>151</ele>
        <time>2017-07-11T10:14:54Z</time>
      </trkpt>
      <trkpt lat="48.76801" lon="2.26177">
        <ele>150</ele>
        <time>2017-07-11T10:15:08Z</time>
      </trkpt>
      <trkpt lat="48.76799" lon="2.26193">
        <ele>150</ele>
        <time>2017-07-11T10:15:20Z</time>
      </trkpt>
      <trkpt lat="48.76792" lon="2.26203">
        <ele>150</ele>
        <time>2017-07-11T10:15:30Z</time>
      </trkpt>
      <trkpt lat="48.76791" lon="2.26205">
        <ele>151</ele>
        <time>2017-07-11T10:15:32Z</time>
      </trkpt>
      <trkpt lat="48.76784" lon="2.26208">
        <ele>151</ele>
        <time>2017-07-11T10:15:42Z</time>
      </trkpt>
      <trkpt lat="48.76778" lon="2.26205">
        <ele>152</ele>
        <time>2017-07-11T10:15:56Z</time>
      </trkpt>
      <trkpt lat="48.76772" lon="2.26197">
        <ele>153</ele>
        <time>2017-07-11T10:16:10Z</time>
      </trkpt>
      <trkpt lat="48.76769" lon="2.26193">
        <ele>154</ele>
        <time>2017-07-11T10:16:15Z</time>
      </trkpt>
      <trkpt lat="48.76767" lon="2.2619">
        <ele>154</ele>
        <time>2017-07-11T10:16:18Z</time>
      </trkpt>
      <trkpt lat="48.76762" lon="2.26177">
        <ele>156</ele>
        <time>2017-07-11T10:16:30Z</time>
      </trkpt>
      <trkpt lat="48.76762" lon="2.26178">
        <ele>156</ele>
        <time>2017-07-11T10:16:45Z</time>
      </trkpt>
      <trkpt lat="48.76763" lon="2.26179">
        <ele>155</ele>
        <time>2017-07-11T10:16:46Z</time>
      </trkpt>
      <trkpt lat="48.76763" lon="2.26187">
        <ele>155</ele>
        <time>2017-07-11T10:17:03Z</time>
      </trkpt>
      <trkpt lat="48.76763" lon="2.26186">
        <ele>155</ele>
        <time>2017-07-11T10:17:24Z</time>
      </trkpt>
      <trkpt lat="48.76766" lon="2.26183">
        <ele>155</ele>
        <time>2017-07-11T10:17:52Z</time>
      </trkpt>
      <trkpt lat="48.76757" lon="2.26185">
        <ele>156</ele>
        <time>2017-07-11T10:18:20Z</time>
      </trkpt>
      <trkpt lat="48.76753" lon="2.26179">
        <ele>157</ele>
        <time>2017-07-11T10:18:52Z</time>
      </trkpt>
      <trkpt lat="48.76756" lon="2.26186">
        <ele>156</ele>
        <time>2017-07-11T10:19:24Z</time>
      </trkpt>
      <trkpt lat="48.76763" lon="2.26188">
        <ele>155</ele>
        <time>2017-07-11T10:19:50Z</time>
      </trkpt>
      <trkpt lat="48.76771" lon="2.2619">
        <ele>154</ele>
        <time>2017-07-11T10:20:18Z</time>
      </trkpt>
      <trkpt lat="48.76776" lon="2.2619">
        <ele>153</ele>
        <time>2017-07-11T10:20:44Z</time>
      </trkpt>
      <trkpt lat="48.76778" lon="2.26197">
        <ele>153</ele>
        <time>2017-07-11T10:21:15Z</time>
      </trkpt>
      <trkpt lat="48.76779" lon="2.26208">
        <ele>152</ele>
        <time>2017-07-11T10:21:21Z</time>
      </trkpt>
      <trkpt lat="48.76782" lon="2.26228">
        <ele>151</ele>
        <time>2017-07-11T10:21:31Z</time>
      </trkpt>
      <trkpt lat="48.76777" lon="2.2624">
        <ele>151</ele>
        <time>2017-07-11T10:21:44Z</time>
      </trkpt>
      <trkpt lat="48.76773" lon="2.26237">
        <ele>151</ele>
        <time>2017-07-11T10:21:47Z</time>
      </trkpt>
      <trkpt lat="48.76748" lon="2.26234">
        <ele>154</ele>
        <time>2017-07-11T10:22:03Z</time>
      </trkpt>
      <trkpt lat="48.76742" lon="2.26235">
        <ele>154</ele>
        <time>2017-07-11T10:22:18Z</time>
      </trkpt>
      <trkpt lat="48.7674" lon="2.26235">
        <ele>154</ele>
        <time>2017-07-11T10:22:34Z</time>
      </trkpt>
      <trkpt lat="48.76736" lon="2.26231">
        <ele>154</ele>
        <time>2017-07-11T10:22:47Z</time>
      </trkpt>
      <trkpt lat="48.76725" lon="2.26216">
        <ele>154</ele>
        <time>2017-07-11T10:23:01Z</time>
      </trkpt>
      <trkpt lat="48.76719" lon="2.26199">
        <ele>155</ele>
        <time>2017-07-11T10:23:15Z</time>
      </trkpt>
      <trkpt lat="48.76718" lon="2.26196">
        <ele>156</ele>
        <time>2017-07-11T10:23:17Z</time>
      </trkpt>
      <trkpt lat="48.76717" lon="2.26193">
        <ele>156</ele>
        <time>2017-07-11T10:23:19Z</time>
      </trkpt>
      <trkpt lat="48.76712" lon="2.26175">
        <ele>157</ele>
        <time>2017-07-11T10:23:29Z</time>
      </trkpt>
      <trkpt lat="48.76712" lon="2.26152">
        <ele>158</ele>
        <time>2017-07-11T10:23:44Z</time>
      </trkpt>
      <trkpt lat="48.76719" lon="2.26129">
        <ele>158</ele>
        <time>2017-07-11T10:23:58Z</time>
      </trkpt>
      <trkpt lat="48.76722" lon="2.26106">
        <ele>159</ele>
        <time>2017-07-11T10:24:11Z</time>
      </trkpt>
      <trkpt lat="48.76719" lon="2.2609">
        <ele>159</ele>
        <time>2017-07-11T10:24:19Z</time>
      </trkpt>
      <trkpt lat="48.76711" lon="2.26076">
        <ele>160</ele>
        <time>2017-07-11T10:24:29Z</time>
      </trkpt>
      <trkpt lat="48.76689" lon="2.26068">
        <ele>160</ele>
        <time>2017-07-11T10:24:46Z</time>
      </trkpt>
      <trkpt lat="48.76684" lon="2.26071">
        <ele>160</ele>
        <time>2017-07-11T10:24:59Z</time>
      </trkpt>
      <trkpt lat="48.76682" lon="2.26069">
        <ele>160</ele>
        <time>2017-07-11T10:25:17Z</time>
      </trkpt>
      <trkpt lat="48.76682" lon="2.26071">
        <ele>160</ele>
        <time>2017-07-11T10:25:44Z</time>
      </trkpt>
      <trkpt lat="48.76667" lon="2.2607">
        <ele>160</ele>
        <time>2017-07-11T10:25:58Z</time>
      </trkpt>
      <trkpt lat="48.76662" lon="2.26069">
        <ele>160</ele>
        <time>2017-07-11T10:26:02Z</time>
      </trkpt>
      <trkpt lat="48.76648" lon="2.26067">
        <ele>158</ele>
        <time>2017-07-11T10:26:15Z</time>
      </trkpt>
      <trkpt lat="48.76643" lon="2.26064">
        <ele>157</ele>
        <time>2017-07-11T10:26:19Z</time>
      </trkpt>
      <trkpt lat="48.76625" lon="2.26055">
        <ele>156</ele>
        <time>2017-07-11T10:26:37Z</time>
      </trkpt>
      <trkpt lat="48.76612" lon="2.26049">
        <ele>154</ele>
        <time>2017-07-11T10:26:53Z</time>
      </trkpt>
      <trkpt lat="48.76608" lon="2.26053">
        <ele>154</ele>
        <time>2017-07-11T10:27:06Z</time>
      </trkpt>
      <trkpt lat="48.76605" lon="2.26063">
        <ele>153</ele>
        <time>2017-07-11T10:27:21Z</time>
      </trkpt>
      <trkpt lat="48.76605" lon="2.26056">
        <ele>153</ele>
        <time>2017-07-11T10:27:34Z</time>
      </trkpt>
      <trkpt lat="48.76601" lon="2.26048">
        <ele>153</ele>
        <time>2017-07-11T10:27:47Z</time>
      </trkpt>
      <trkpt lat="48.76586" lon="2.26048">
        <ele>151</ele>
        <time>2017-07-11T10:28:04Z</time>
      </trkpt>
      <trkpt lat="48.76576" lon="2.26049">
        <ele>150</ele>
        <time>2017-07-11T10:28:19Z</time>
      </trkpt>
      <trkpt lat="48.76572" lon="2.26042">
        <ele>150</ele>
        <time>2017-07-11T10:28:26Z</time>
      </trkpt>
      <trkpt lat="48.76566" lon="2.26032">
        <ele>149</ele>
        <time>2017-07-11T10:28:38Z</time>
      </trkpt>
      <trkpt lat="48.76566" lon="2.26032">
        <ele>149</ele>
        <time>2017-07-11T10:28:39Z</time>
      </trkpt>
      <trkpt lat="48.76563" lon="2.26023">
        <ele>149</ele>
        <time>2017-07-11T10:28:46Z</time>
      </trkpt>
      <trkpt lat="48.76563" lon="2.26017">
        <ele>149</ele>
        <time>2017-07-11T10:28:50Z</time>
      </trkpt>
      <trkpt lat="48.76551" lon="2.26011">
        <ele>147</ele>
        <time>2017-07-11T10:29:04Z</time>
      </trkpt>
      <trkpt lat="48.76554" lon="2.26017">
        <ele>148</ele>
        <time>2017-07-11T10:29:27Z</time>
      </trkpt>
      <trkpt lat="48.76549" lon="2.26013">
        <ele>147</ele>
        <time>2017-07-11T10:29:34Z</time>
      </trkpt>
      <trkpt lat="48.76544" lon="2.25996">
        <ele>147</ele>
        <time>2017-07-11T10:29:44Z</time>
      </trkpt>
      <trkpt lat="48.76545" lon="2.25978">
        <ele>148</ele>
        <time>2017-07-11T10:29:56Z</time>
      </trkpt>
      <trkpt lat="48.76549" lon="2.25955">
        <ele>149</ele>
        <time>2017-07-11T10:30:10Z</time>
      </trkpt>
      <trkpt lat="48.76548" lon="2.25953">
        <ele>149</ele>
        <time>2017-07-11T10:30:11Z</time>
      </trkpt>
      <trkpt lat="48.76547" lon="2.25945">
        <ele>149</ele>
        <time>2017-07-11T10:30:15Z</time>
      </trkpt>
      <trkpt lat="48.76549" lon="2.25939">
        <ele>149</ele>
        <time>2017-07-11T10:30:19Z</time>
      </trkpt>
      <trkpt lat="48.76554" lon="2.2593">
        <ele>150</ele>
        <time>2017-07-11T10:30:24Z</time>
      </trkpt>
      <trkpt lat="48.76559" lon="2.25908">
        <ele>151</ele>
        <time>2017-07-11T10:30:38Z</time>
      </trkpt>
      <trkpt lat="48.76559" lon="2.25901">
        <ele>152</ele>
        <time>2017-07-11T10:30:43Z</time>
      </trkpt>
      <trkpt lat="48.76563" lon="2.25884">
        <ele>152</ele>
        <time>2017-07-11T10:30:53Z</time>
      </trkpt>
      <trkpt lat="48.76571" lon="2.25853">
        <ele>153</ele>
        <time>2017-07-11T10:31:11Z</time>
      </trkpt>
      <trkpt lat="48.76557" lon="2.25846">
        <ele>151</ele>
        <time>2017-07-11T10:31:23Z</time>
      </trkpt>
      <trkpt lat="48.76543" lon="2.25844">
        <ele>149</ele>
        <time>2017-07-11T10:31:37Z</time>
      </trkpt>
      <trkpt lat="48.7653" lon="2.2584">
        <ele>147</ele>
        <time>2017-07-11T10:31:50Z</time>
      </trkpt>
      <trkpt lat="48.76518" lon="2.25836">
        <ele>145</ele>
        <time>2017-07-11T10:32:04Z</time>
      </trkpt>
      <trkpt lat="48.76507" lon="2.25833">
        <ele>143</ele>
        <time>2017-07-11T10:32:17Z</time>
      </trkpt>
      <trkpt lat="48.76493" lon="2.25829">
        <ele>142</ele>
        <time>2017-07-11T10:32:33Z</time>
      </trkpt>
      <trkpt lat="48.7649" lon="2.25807">
        <ele>143</ele>
        <time>2017-07-11T10:32:48Z</time>
      </trkpt>
      <trkpt lat="48.76477" lon="2.25798">
        <ele>143</ele>
        <time>2017-07-11T10:32:58Z</time>
      </trkpt>
      <trkpt lat="48.76482" lon="2.25776">
        <ele>144</ele>
        <time>2017-07-11T10:33:13Z</time>
      </trkpt>
      <trkpt lat="48.76482" lon="2.25775">
        <ele>144</ele>
        <time>2017-07-11T10:33:14Z</time>
      </trkpt>
      <trkpt lat="48.76481" lon="2.25774">
        <ele>144</ele>
        <time>2017-07-11T10:33:15Z</time>
      </trkpt>
      <trkpt lat="48.76478" lon="2.25767">
        <ele>144</ele>
        <time>2017-07-11T10:33:20Z</time>
      </trkpt>
      <trkpt lat="48.76478" lon="2.25765">
        <ele>145</ele>
        <time>2017-07-11T10:33:21Z</time>
      </trkpt>
      <trkpt lat="48.76472" lon="2.2575">
        <ele>145</ele>
        <time>2017-07-11T10:33:34Z</time>
      </trkpt>
      <trkpt lat="48.76467" lon="2.25731">
        <ele>147</ele>
        <time>2017-07-11T10:33:51Z</time>
      </trkpt>
      <trkpt lat="48.76463" lon="2.25713">
        <ele>149</ele>
        <time>2017-07-11T10:34:04Z</time>
      </trkpt>
      <trkpt lat="48.76459" lon="2.257">
        <ele>151</ele>
        <time>2017-07-11T10:34:17Z</time>
      </trkpt>
      <trkpt lat="48.76456" lon="2.25687">
        <ele>152</ele>
        <time>2017-07-11T10:34:29Z</time>
      </trkpt>
      <trkpt lat="48.76454" lon="2.25679">
        <ele>153</ele>
        <time>2017-07-11T10:34:37Z</time>
      </trkpt>
      <trkpt lat="48.76454" lon="2.25668">
        <ele>154</ele>
        <time>2017-07-11T10:34:50Z</time>
      </trkpt>
      <trkpt lat="48.76439" lon="2.25651">
        <ele>156</ele>
        <time>2017-07-11T10:35:02Z</time>
      </trkpt>
      <trkpt lat="48.76442" lon="2.25637">
        <ele>158</ele>
        <time>2017-07-11T10:35:14Z</time>
      </trkpt>
      <trkpt lat="48.76435" lon="2.25626">
        <ele>159</ele>
        <time>2017-07-11T10:35:28Z</time>
      </trkpt>
      <trkpt lat="48.76426" lon="2.25617">
        <ele>159</ele>
        <time>2017-07-11T10:35:43Z</time>
      </trkpt>
      <trkpt lat="48.76417" lon="2.25604">
        <ele>161</ele>
        <time>2017-07-11T10:36:00Z</time>
      </trkpt>
      <trkpt lat="48.76408" lon="2.25614">
        <ele>159</ele>
        <time>2017-07-11T10:36:15Z</time>
      </trkpt>
      <trkpt lat="48.76401" lon="2.25626">
        <ele>158</ele>
        <time>2017-07-11T10:36:26Z</time>
      </trkpt>
      <trkpt lat="48.76392" lon="2.25622">
        <ele>157</ele>
        <time>2017-07-11T10:36:36Z</time>
      </trkpt>
      <trkpt lat="48.76388" lon="2.2562">
        <ele>157</ele>
        <time>2017-07-11T10:36:41Z</time>
      </trkpt>
      <trkpt lat="48.76382" lon="2.25615">
        <ele>157</ele>
        <time>2017-07-11T10:36:50Z</time>
      </trkpt>
      <trkpt lat="48.76373" lon="2.25602">
        <ele>157</ele>
        <time>2017-07-11T10:37:02Z</time>
      </trkpt>
      <trkpt lat="48.7637" lon="2.25592">
        <ele>157</ele>
        <time>2017-07-11T10:37:08Z</time>
      </trkpt>
      <trkpt lat="48.76366" lon="2.25578">
        <ele>157</ele>
        <time>2017-07-11T10:37:20Z</time>
      </trkpt>
      <trkpt lat="48.7636" lon="2.25552">
        <ele>158</ele>
        <time>2017-07-11T10:37:37Z</time>
      </trkpt>
      <trkpt lat="48.76359" lon="2.25545">
        <ele>159</ele>
        <time>2017-07-11T10:37:41Z</time>
      </trkpt>
      <trkpt lat="48.76352" lon="2.25517">
        <ele>160</ele>
        <time>2017-07-11T10:37:58Z</time>
      </trkpt>
      <trkpt lat="48.76352" lon="2.255">
        <ele>161</ele>
        <time>2017-07-11T10:46:07Z</time>
      </trkpt>
      <trkpt lat="48.76352" lon="2.25489">
        <ele>161</ele>
        <time>2017-07-11T10:46:18Z</time>
      </trkpt>
      <trkpt lat="48.76349" lon="2.25478">
        <ele>161</ele>
        <time>2017-07-11T10:46:29Z</time>
      </trkpt>
      <trkpt lat="48.76352" lon="2.25455">
        <ele>162</ele>
        <time>2017-07-11T10:46:46Z</time>
      </trkpt>
      <trkpt lat="48.76354" lon="2.2544">
        <ele>163</ele>
        <time>2017-07-11T10:47:00Z</time>
      </trkpt>
      <trkpt lat="48.76347" lon="2.25427">
        <ele>163</ele>
        <time>2017-07-11T10:47:15Z</time>
      </trkpt>
      <trkpt lat="48.76333" lon="2.25416">
        <ele>162</ele>
        <time>2017-07-11T10:47:30Z</time>
      </trkpt>
      <trkpt lat="48.76332" lon="2.25416">
        <ele>162</ele>
        <time>2017-07-11T10:47:31Z</time>
      </trkpt>
      <trkpt lat="48.76314" lon="2.25404">
        <ele>160</ele>
        <time>2017-07-11T10:47:48Z</time>
      </trkpt>
      <trkpt lat="48.76302" lon="2.25399">
        <ele>159</ele>
        <time>2017-07-11T10:48:01Z</time>
      </trkpt>
      <trkpt lat="48.76284" lon="2.2539">
        <ele>157</ele>
        <time>2017-07-11T10:48:19Z</time>
      </trkpt>
      <trkpt lat="48.76275" lon="2.25391">
        <ele>156</ele>
        <time>2017-07-11T10:48:36Z</time>
      </trkpt>
      <trkpt lat="48.76266" lon="2.25393">
        <ele>155</ele>
        <time>2017-07-11T10:48:51Z</time>
      </trkpt>
      <trkpt lat="48.76262" lon="2.25379">
        <ele>155</ele>
        <time>2017-07-11T10:49:02Z</time>
      </trkpt>
      <trkpt lat="48.76259" lon="2.25377">
        <ele>155</ele>
        <time>2017-07-11T10:49:05Z</time>
      </trkpt>
      <trkpt lat="48.76251" lon="2.25378">
        <ele>154</ele>
        <time>2017-07-11T10:49:11Z</time>
      </trkpt>
      <trkpt lat="48.76232" lon="2.25325">
        <ele>156</ele>
        <time>2017-07-11T10:50:36Z</time>
      </trkpt>
      <trkpt lat="48.76221" lon="2.25312">
        <ele>157</ele>
        <time>2017-07-11T10:50:49Z</time>
      </trkpt>
      <trkpt lat="48.76219" lon="2.25295">
        <ele>157</ele>
        <time>2017-07-11T10:51:00Z</time>
      </trkpt>
      <trkpt lat="48.7622" lon="2.25278">
        <ele>158</ele>
        <time>2017-07-11T10:51:13Z</time>
      </trkpt>
      <trkpt lat="48.76221" lon="2.25261">
        <ele>159</ele>
        <time>2017-07-11T10:51:25Z</time>
      </trkpt>
      <trkpt lat="48.76221" lon="2.25245">
        <ele>160</ele>
        <time>2017-07-11T10:51:40Z</time>
      </trkpt>
      <trkpt lat="48.76224" lon="2.25221">
        <ele>160</ele>
        <time>2017-07-11T10:51:53Z</time>
      </trkpt>
      <trkpt lat="48.76236" lon="2.25198">
        <ele>161</ele>
        <time>2017-07-11T10:52:10Z</time>
      </trkpt>
      <trkpt lat="48.76246" lon="2.2518">
        <ele>162</ele>
        <time>2017-07-11T10:52:25Z</time>
      </trkpt>
      <trkpt lat="48.76254" lon="2.25163">
        <ele>162</ele>
        <time>2017-07-11T10:52:40Z</time>
      </trkpt>
      <trkpt lat="48.76261" lon="2.2515">
        <ele>162</ele>
        <time>2017-07-11T10:52:52Z</time>
      </trkpt>
      <trkpt lat="48.76273" lon="2.25136">
        <ele>163</ele>
        <time>2017-07-11T10:53:06Z</time>
      </trkpt>
      <trkpt lat="48.76278" lon="2.25121">
        <ele>163</ele>
        <time>2017-07-11T10:53:22Z</time>
      </trkpt>
      <trkpt lat="48.76282" lon="2.251">
        <ele>164</ele>
        <time>2017-07-11T10:53:36Z</time>
      </trkpt>
      <trkpt lat="48.76286" lon="2.2507">
        <ele>164</ele>
        <time>2017-07-11T10:53:52Z</time>
      </trkpt>
      <trkpt lat="48.76288" lon="2.2504">
        <ele>164</ele>
        <time>2017-07-11T10:54:09Z</time>
      </trkpt>
      <trkpt lat="48.76294" lon="2.25007">
        <ele>165</ele>
        <time>2017-07-11T10:54:26Z</time>
      </trkpt>
      <trkpt lat="48.76287" lon="2.24984">
        <ele>165</ele>
        <time>2017-07-11T10:54:39Z</time>
      </trkpt>
      <trkpt lat="48.76277" lon="2.24967">
        <ele>164</ele>
        <time>2017-07-11T10:54:54Z</time>
      </trkpt>
      <trkpt lat="48.76262" lon="2.24949">
        <ele>164</ele>
        <time>2017-07-11T10:55:10Z</time>
      </trkpt>
      <trkpt lat="48.76267" lon="2.24931">
        <ele>165</ele>
        <time>2017-07-11T10:55:23Z</time>
      </trkpt>
      <trkpt lat="48.76281" lon="2.24915">
        <ele>165</ele>
        <time>2017-07-11T10:55:40Z</time>
      </trkpt>
      <trkpt lat="48.7629" lon="2.24903">
        <ele>166</ele>
        <time>2017-07-11T10:55:53Z</time>
      </trkpt>
      <trkpt lat="48.76302" lon="2.24895">
        <ele>166</ele>
        <time>2017-07-11T10:56:06Z</time>
      </trkpt>
      <trkpt lat="48.76319" lon="2.24883">
        <ele>167</ele>
        <time>2017-07-11T10:56:22Z</time>
      </trkpt>
      <trkpt lat="48.76334" lon="2.24873">
        <ele>168</ele>
        <time>2017-07-11T10:56:37Z</time>
      </trkpt>
      <trkpt lat="48.76349" lon="2.24859">
        <ele>168</ele>
        <time>2017-07-11T10:56:54Z</time>
      </trkpt>
      <trkpt lat="48.76353" lon="2.24846">
        <ele>168</ele>
        <time>2017-07-11T10:57:08Z</time>
      </trkpt>
      <trkpt lat="48.76355" lon="2.24845">
        <ele>168</ele>
        <time>2017-07-11T10:57:24Z</time>
      </trkpt>
      <trkpt lat="48.76352" lon="2.24843">
        <ele>168</ele>
        <time>2017-07-11T10:57:36Z</time>
      </trkpt>
      <trkpt lat="48.76349" lon="2.24838">
        <ele>168</ele>
        <time>2017-07-11T10:57:42Z</time>
      </trkpt>
      <trkpt lat="48.76345" lon="2.2482">
        <ele>167</ele>
        <time>2017-07-11T10:57:53Z</time>
      </trkpt>
      <trkpt lat="48.76341" lon="2.24802">
        <ele>167</ele>
        <time>2017-07-11T10:58:06Z</time>
      </trkpt>
      <trkpt lat="48.76336" lon="2.24777">
        <ele>166</ele>
        <time>2017-07-11T10:58:21Z</time>
      </trkpt>
      <trkpt lat="48.76326" lon="2.24747">
        <ele>166</ele>
        <time>2017-07-11T10:58:39Z</time>
      </trkpt>
      <trkpt lat="48.76317" lon="2.2472">
        <ele>168</ele>
        <time>2017-07-11T10:58:55Z</time>
      </trkpt>
      <trkpt lat="48.76307" lon="2.24694">
        <ele>169</ele>
        <time>2017-07-11T10:59:11Z</time>
      </trkpt>
      <trkpt lat="48.763" lon="2.24674">
        <ele>170</ele>
        <time>2017-07-11T10:59:24Z</time>
      </trkpt>
      <trkpt lat="48.76294" lon="2.24648">
        <ele>171</ele>
        <time>2017-07-11T10:59:39Z</time>
      </trkpt>
      <trkpt lat="48.76292" lon="2.2464">
        <ele>171</ele>
        <time>2017-07-11T10:59:43Z</time>
      </trkpt>
      <trkpt lat="48.7629" lon="2.24632">
        <ele>171</ele>
        <time>2017-07-11T10:59:48Z</time>
      </trkpt>
      <trkpt lat="48.76281" lon="2.24601">
        <ele>172</ele>
        <time>2017-07-11T11:00:02Z</time>
      </trkpt>
      <trkpt lat="48.7628" lon="2.24599">
        <ele>172</ele>
        <time>2017-07-11T11:00:05Z</time>
      </trkpt>
      <trkpt lat="48.76282" lon="2.24601">
        <ele>172</ele>
        <time>2017-11-14T11:49:28Z</time>
      </trkpt>
      <trkpt lat="48.76259" lon="2.24517">
        <ele>175</ele>
        <time>2017-11-14T11:49:33Z</time>
      </trkpt>
      <trkpt lat="48.75949" lon="2.24393">
        <ele>179</ele>
        <time>2017-11-14T11:49:38Z</time>
      </trkpt>
      <trkpt lat="48.75163" lon="2.25033">
        <ele>171</ele>
        <time>2017-11-14T11:49:43Z</time>
      </trkpt>
      <trkpt lat="48.75218" lon="2.2515">
        <ele>167</ele>
        <time>2017-11-14T11:49:48Z</time>
      </trkpt>
      <trkpt lat="48.75213" lon="2.25179">
        <ele>166</ele>
        <time>2017-11-14T11:49:53Z</time>
      </trkpt>
      <trkpt lat="48.75222" lon="2.25297">
        <ele>167</ele>
        <time>2017-11-14T11:49:58Z</time>
      </trkpt>
      <trkpt lat="48.75227" lon="2.25292">
        <ele>167</ele>
        <time>2017-11-14T11:50:03Z</time>
      </trkpt>
      <trkpt lat="48.75251" lon="2.25503">
        <ele>167</ele>
        <time>2017-11-14T11:50:08Z</time>
      </trkpt>
      <trkpt lat="48.75242" lon="2.25541">
        <ele>165</ele>
        <time>2017-11-14T11:50:13Z</time>
      </trkpt>
      <trkpt lat="48.75195" lon="2.25747">
        <ele>154</ele>
        <time>2017-11-14T11:50:18Z</time>
      </trkpt>
      <trkpt lat="48.75168" lon="2.25828">
        <ele>145</ele>
        <time>2017-11-14T11:50:23Z</time>
      </trkpt>
      <trkpt lat="48.75168" lon="2.25828">
        <ele>146</ele>
        <time>2017-10-16T08:01:22Z</time>
      </trkpt>
      <trkpt lat="48.7517" lon="2.25985">
        <ele>139</ele>
        <time>2017-10-16T08:01:27Z</time>
      </trkpt>
      <trkpt lat="48.75133" lon="2.25935">
        <ele>136</ele>
        <time>2017-10-16T08:01:32Z</time>
      </trkpt>
      <trkpt lat="48.751" lon="2.25892">
        <ele>132</ele>
        <time>2017-10-16T08:01:37Z</time>
      </trkpt>
      <trkpt lat="48.75074" lon="2.25862">
        <ele>127</ele>
        <time>2017-10-16T08:01:42Z</time>
      </trkpt>
      <trkpt lat="48.75052" lon="2.25832">
        <ele>124</ele>
        <time>2017-10-16T08:01:47Z</time>
      </trkpt>
      <trkpt lat="48.74991" lon="2.25768">
        <ele>116</ele>
        <time>2017-10-16T08:01:52Z</time>
      </trkpt>
      <trkpt lat="48.74923" lon="2.25856">
        <ele>110</ele>
        <time>2017-10-16T08:01:57Z</time>
      </trkpt>
      <trkpt lat="48.74896" lon="2.25936">
        <ele>107</ele>
        <time>2017-10-16T08:02:02Z</time>
      </trkpt>
      <trkpt lat="48.74855" lon="2.2601">
        <ele>102</ele>
        <time>2017-10-16T08:02:07Z</time>
      </trkpt>
      <trkpt lat="48.74912" lon="2.2611">
        <ele>107</ele>
        <time>2017-10-16T08:02:12Z</time>
      </trkpt>
      <trkpt lat="48.7485" lon="2.26222">
        <ele>101</ele>
        <time>2017-10-16T08:02:17Z</time>
      </trkpt>
      <trkpt lat="48.74842" lon="2.26214">
        <ele>101</ele>
        <time>2017-10-16T08:02:22Z</time>
      </trkpt>
      <trkpt lat="48.74821" lon="2.26245">
        <ele>100</ele>
        <time>2017-10-16T08:02:27Z</time>
      </trkpt>
      <trkpt lat="48.74752" lon="2.26175">
        <ele>97</ele>
        <time>2017-10-16T08:02:32Z</time>
      </trkpt>
      <trkpt lat="48.74747" lon="2.26182">
        <ele>97</ele>
        <time>2017-10-16T08:02:37Z</time>
      </trkpt>
      <trkpt lat="48.74704" lon="2.26132">
        <ele>95</ele>
        <time>2017-10-16T08:02:42Z</time>
      </trkpt>
      <trkpt lat="48.74639" lon="2.26226">
        <ele>92</ele>
        <time>2017-10-16T08:02:47Z</time>
      </trkpt>
      <trkpt lat="48.74622" lon="2.2627">
        <ele>91</ele>
        <time>2017-10-16T08:02:52Z</time>
      </trkpt>
      <trkpt lat="48.74585" lon="2.26377">
        <ele>87</ele>
        <time>2017-10-16T08:02:57Z</time>
      </trkpt>
      <trkpt lat="48.74628" lon="2.26415">
        <ele>87</ele>
        <time>2017-10-16T08:03:02Z</time>
      </trkpt>
      <trkpt lat="48.74637" lon="2.26424">
        <ele>87</ele>
        <time>2017-10-16T08:03:07Z</time>
      </trkpt>
      <trkpt lat="48.74653" lon="2.26445">
        <ele>87</ele>
        <time>2017-10-16T08:03:12Z</time>
      </trkpt>
      <trkpt lat="48.74695" lon="2.26389">
        <ele>92</ele>
        <time>2017-10-16T08:03:17Z</time>
      </trkpt>
      <trkpt lat="48.74695" lon="2.26388">
        <ele>92</ele>
        <time>2017-11-14T11:52:28Z</time>
      </trkpt>
      <trkpt lat="48.74717" lon="2.26355">
        <ele>95</ele>
        <time>2017-11-14T11:52:33Z</time>
      </trkpt>
      <trkpt lat="48.74739" lon="2.26326">
        <ele>98</ele>
        <time>2017-11-14T11:52:38Z</time>
      </trkpt>
      <trkpt lat="48.74747" lon="2.26321">
        <ele>99</ele>
        <time>2017-11-14T11:52:43Z</time>
      </trkpt>
      <trkpt lat="48.74747" lon="2.26321">
        <ele>99</ele>
        <time>2017-11-14T11:52:48Z</time>
      </trkpt>
      <trkpt lat="48.74765" lon="2.2636">
        <ele>100</ele>
        <time>2017-11-14T11:52:53Z</time>
      </trkpt>
      <trkpt lat="48.74754" lon="2.26363">
        <ele>99</ele>
        <time>2017-11-14T11:52:58Z</time>
      </trkpt>
      <trkpt lat="48.74751" lon="2.26354">
        <ele>99</ele>
        <time>2017-11-14T11:53:03Z</time>
      </trkpt>
      <trkpt lat="48.74737" lon="2.26344">
        <ele>98</ele>
        <time>2017-11-14T11:53:08Z</time>
      </trkpt>
      <trkpt lat="48.7468" lon="2.26415">
        <ele>90</ele>
        <time>2017-11-14T11:53:13Z</time>
      </trkpt>
      <trkpt lat="48.74714" lon="2.2646">
        <ele>93</ele>
        <time>2017-11-14T11:53:18Z</time>
      </trkpt>
      <trkpt lat="48.74743" lon="2.26416">
        <ele>98</ele>
        <time>2017-11-14T11:53:23Z</time>
      </trkpt>
      <trkpt lat="48.74739" lon="2.26361">
        <ele>98</ele>
        <time>2017-11-14T11:53:28Z</time>
      </trkpt>
      <trkpt lat="48.74754" lon="2.26369">
        <ele>99</ele>
        <time>2017-11-14T11:53:33Z</time>
      </trkpt>
      <trkpt lat="48.74758" lon="2.264">
        <ele>99</ele>
        <time>2017-11-14T11:53:38Z</time>
      </trkpt>
      <trkpt lat="48.74759" lon="2.26445">
        <ele>98</ele>
        <time>2017-11-14T11:53:43Z</time>
      </trkpt>
      <trkpt lat="48.74754" lon="2.2645">
        <ele>97</ele>
        <time>2017-11-14T11:53:48Z</time>
      </trkpt>
      <trkpt lat="48.74755" lon="2.26449">
        <ele>97</ele>
        <time>2017-10-16T08:03:57Z</time>
      </trkpt>
      <trkpt lat="48.747" lon="2.26632">
        <ele>89</ele>
        <time>2017-10-16T08:04:02Z</time>
      </trkpt>
      <trkpt lat="48.74737" lon="2.26639">
        <ele>91</ele>
        <time>2017-10-16T08:04:07Z</time>
      </trkpt>
      <trkpt lat="48.74742" lon="2.26651">
        <ele>92</ele>
        <time>2017-11-14T11:54:08Z</time>
      </trkpt>
      <trkpt lat="48.74744" lon="2.26673">
        <ele>93</ele>
        <time>2017-10-16T08:04:12Z</time>
      </trkpt>
      <trkpt lat="48.74781" lon="2.26724">
        <ele>93</ele>
        <time>2017-10-16T08:04:17Z</time>
      </trkpt>
      <trkpt lat="48.74742" lon="2.2678">
        <ele>92</ele>
        <time>2017-10-16T08:04:22Z</time>
      </trkpt>
      <trkpt lat="48.74759" lon="2.26817">
        <ele>93</ele>
        <time>2017-10-16T08:04:27Z</time>
      </trkpt>
      <trkpt lat="48.74761" lon="2.26842">
        <ele>93</ele>
        <time>2017-11-14T11:54:33Z</time>
      </trkpt>
      <trkpt lat="48.74754" lon="2.26865">
        <ele>93</ele>
        <time>2017-11-14T11:54:38Z</time>
      </trkpt>
      <trkpt lat="48.74753" lon="2.26892">
        <ele>92</ele>
        <time>2017-11-14T11:54:43Z</time>
      </trkpt>
      <trkpt lat="48.74746" lon="2.26942">
        <ele>92</ele>
        <time>2017-11-14T11:54:48Z</time>
      </trkpt>
      <trkpt lat="48.74746" lon="2.26942">
        <ele>92</ele>
        <time>2017-11-14T11:54:53Z</time>
      </trkpt>
      <trkpt lat="48.74735" lon="2.26954">
        <ele>91</ele>
        <time>2017-11-14T11:54:58Z</time>
      </trkpt>
      <trkpt lat="48.7471" lon="2.26946">
        <ele>90</ele>
        <time>2017-11-14T11:55:03Z</time>
      </trkpt>
      <trkpt lat="48.74691" lon="2.2696">
        <ele>90</ele>
        <time>2017-11-14T11:55:08Z</time>
      </trkpt>
      <trkpt lat="48.7466" lon="2.26993">
        <ele>89</ele>
        <time>2017-11-14T11:55:13Z</time>
      </trkpt>
      <trkpt lat="48.74607" lon="2.26934">
        <ele>86</ele>
        <time>2017-11-14T11:55:18Z</time>
      </trkpt>
      <trkpt lat="48.74618" lon="2.26901">
        <ele>86</ele>
        <time>2017-11-14T11:55:23Z</time>
      </trkpt>
      <trkpt lat="48.74629" lon="2.26879">
        <ele>87</ele>
        <time>2017-10-16T08:07:27Z</time>
      </trkpt>
      <trkpt lat="48.74602" lon="2.26849">
        <ele>86</ele>
        <time>2017-11-14T11:55:33Z</time>
      </trkpt>
      <trkpt lat="48.74589" lon="2.26838">
        <ele>85</ele>
        <time>2017-10-16T08:07:32Z</time>
      </trkpt>
      <trkpt lat="48.74612" lon="2.26703">
        <ele>85</ele>
        <time>2017-10-16T08:07:37Z</time>
      </trkpt>
      <trkpt lat="48.74604" lon="2.26681">
        <ele>84</ele>
        <time>2017-10-16T08:07:42Z</time>
      </trkpt>
      <trkpt lat="48.74426" lon="2.26661">
        <ele>77</ele>
        <time>2017-10-16T08:07:47Z</time>
      </trkpt>
      <trkpt lat="48.74417" lon="2.26683">
        <ele>76</ele>
        <time>2017-11-14T11:55:58Z</time>
      </trkpt>
      <trkpt lat="48.74409" lon="2.26689">
        <ele>76</ele>
        <time>2017-11-14T11:56:03Z</time>
      </trkpt>
      <trkpt lat="48.74396" lon="2.26863">
        <ele>77</ele>
        <time>2017-10-16T08:07:52Z</time>
      </trkpt>
      <trkpt lat="48.74392" lon="2.26878">
        <ele>77</ele>
        <time>2017-11-14T11:56:13Z</time>
      </trkpt>
      <trkpt lat="48.74403" lon="2.26893">
        <ele>77</ele>
        <time>2017-11-14T11:56:18Z</time>
      </trkpt>
      <trkpt lat="48.74378" lon="2.26956">
        <ele>77</ele>
        <time>2017-11-14T11:56:23Z</time>
      </trkpt>
      <trkpt lat="48.7436" lon="2.26991">
        <ele>76</ele>
        <time>2017-11-14T11:56:28Z</time>
      </trkpt>
      <trkpt lat="48.74336" lon="2.27028">
        <ele>75</ele>
        <time>2017-11-14T11:56:33Z</time>
      </trkpt>
      <trkpt lat="48.74311" lon="2.27058">
        <ele>74</ele>
        <time>2017-11-14T11:56:38Z</time>
      </trkpt>
      <trkpt lat="48.74281" lon="2.26983">
        <ele>75</ele>
        <time>2017-11-14T11:56:43Z</time>
      </trkpt>
      <trkpt lat="48.74222" lon="2.2684">
        <ele>71</ele>
        <time>2017-11-14T11:56:48Z</time>
      </trkpt>
      <trkpt lat="48.74221" lon="2.2684">
        <ele>71</ele>
        <time>2017-10-16T08:08:12Z</time>
      </trkpt>
      <trkpt lat="48.74048" lon="2.27004">
        <ele>64</ele>
        <time>2017-10-16T08:08:17Z</time>
      </trkpt>
      <trkpt lat="48.74041" lon="2.27115">
        <ele>62</ele>
        <time>2017-10-16T08:08:22Z</time>
      </trkpt>
      <trkpt lat="48.74021" lon="2.27125">
        <ele>61</ele>
        <time>2017-10-16T08:08:27Z</time>
      </trkpt>
      <trkpt lat="48.74021" lon="2.27125">
        <ele>61</ele>
        <time>2017-11-14T11:57:13Z</time>
      </trkpt>
      <trkpt lat="48.74016" lon="2.27202">
        <ele>60</ele>
        <time>2017-11-14T11:57:18Z</time>
      </trkpt>
      <trkpt lat="48.74021" lon="2.27235">
        <ele>60</ele>
        <time>2017-11-14T11:57:23Z</time>
      </trkpt>
      <trkpt lat="48.74036" lon="2.27293">
        <ele>61</ele>
        <time>2017-11-14T11:57:28Z</time>
      </trkpt>
      <trkpt lat="48.74096" lon="2.27445">
        <ele>61</ele>
        <time>2017-11-14T11:57:33Z</time>
      </trkpt>
      <trkpt lat="48.74054" lon="2.27464">
        <ele>62</ele>
        <time>2017-11-14T11:57:38Z</time>
      </trkpt>
      <trkpt lat="48.7404" lon="2.27473">
        <ele>62</ele>
        <time>2017-11-14T11:57:43Z</time>
      </trkpt>
      <trkpt lat="48.74037" lon="2.27477">
        <ele>62</ele>
        <time>2017-10-16T08:08:52Z</time>
      </trkpt>
      <trkpt lat="48.73992" lon="2.27553">
        <ele>63</ele>
        <time>2017-10-16T08:08:57Z</time>
      </trkpt>
      <trkpt lat="48.74013" lon="2.27605">
        <ele>61</ele>
        <time>2017-10-16T08:09:02Z</time>
      </trkpt>
      <trkpt lat="48.74059" lon="2.27666">
        <ele>57</ele>
        <time>2017-10-16T08:09:07Z</time>
      </trkpt>
      <trkpt lat="48.74093" lon="2.27719">
        <ele>57</ele>
        <time>2017-10-16T08:09:12Z</time>
      </trkpt>
      <trkpt lat="48.74118" lon="2.27743">
        <ele>57</ele>
        <time>2017-10-16T08:09:17Z</time>
      </trkpt>
      <trkpt lat="48.74389" lon="2.284">
        <ele>55</ele>
        <time>2017-10-16T08:09:22Z</time>
      </trkpt>
      <trkpt lat="48.74362" lon="2.28404">
        <ele>55</ele>
        <time>2017-10-16T08:09:27Z</time>
      </trkpt>
      <trkpt lat="48.74317" lon="2.28437">
        <ele>56</ele>
        <time>2017-10-16T08:09:32Z</time>
      </trkpt>
      <trkpt lat="48.74324" lon="2.28452">
        <ele>56</ele>
        <time>2017-10-16T08:09:37Z</time>
      </trkpt>
      <trkpt lat="48.7434" lon="2.2849">
        <ele>56</ele>
        <time>2017-10-16T08:09:42Z</time>
      </trkpt>
      <trkpt lat="48.74355" lon="2.2851">
        <ele>56</ele>
        <time>2017-10-16T08:09:47Z</time>
      </trkpt>
      <trkpt lat="48.74352" lon="2.28536">
        <ele>55</ele>
        <time>2017-10-16T08:09:52Z</time>
      </trkpt>
      <trkpt lat="48.74396" lon="2.2863">
        <ele>54</ele>
        <time>2017-10-16T08:09:57Z</time>
      </trkpt>
      <trkpt lat="48.74428" lon="2.2871">
        <ele>54</ele>
        <time>2017-10-16T08:10:02Z</time>
      </trkpt>
      <trkpt lat="48.74445" lon="2.28741">
        <ele>53</ele>
        <time>2017-10-16T08:10:07Z</time>
      </trkpt>
      <trkpt lat="48.74462" lon="2.28781">
        <ele>53</ele>
        <time>2017-10-16T08:10:12Z</time>
      </trkpt>
      <trkpt lat="48.74465" lon="2.28811">
        <ele>53</ele>
        <time>2017-10-16T08:10:17Z</time>
      </trkpt>
      <trkpt lat="48.74487" lon="2.28826">
        <ele>53</ele>
        <time>2017-10-16T08:10:22Z</time>
      </trkpt>
      <trkpt lat="48.74535" lon="2.28928">
        <ele>52</ele>
        <time>2017-10-16T08:10:27Z</time>
      </trkpt>
      <trkpt lat="48.74573" lon="2.29002">
        <ele>52</ele>
        <time>2017-10-16T08:10:32Z</time>
      </trkpt>
      <trkpt lat="48.74589" lon="2.29067">
        <ele>52</ele>
        <time>2017-10-16T08:10:37Z</time>
      </trkpt>
      <trkpt lat="48.74607" lon="2.29199">
        <ele>53</ele>
        <time>2017-10-16T08:10:42Z</time>
      </trkpt>
      <trkpt lat="48.74624" lon="2.2922">
        <ele>53</ele>
        <time>2017-10-16T08:10:47Z</time>
      </trkpt>
      <trkpt lat="48.74649" lon="2.29232">
        <ele>53</ele>
        <time>2017-10-16T08:10:52Z</time>
      </trkpt>
      <trkpt lat="48.74712" lon="2.29321">
        <ele>55</ele>
        <time>2017-10-16T08:10:57Z</time>
      </trkpt>
      <trkpt lat="48.74733" lon="2.29336">
        <ele>54</ele>
        <time>2017-10-16T08:11:02Z</time>
      </trkpt>
      <trkpt lat="48.74762" lon="2.29361">
        <ele>54</ele>
        <time>2017-10-16T08:11:07Z</time>
      </trkpt>
      <trkpt lat="48.74798" lon="2.29372">
        <ele>55</ele>
        <time>2017-10-16T08:11:12Z</time>
      </trkpt>
    </trkseg>
  </trk>
</gpx>